<?xml version="1.0" encoding="UTF-8" standalone="no" ?>
<gpx xmlns="http://www.topografix.com/GPX/1/1" xmlns:xsi="http://www.w3.org/2001/XMLSchema-instance" xsi:schemaLocation="http://www.topografix.com/GPX/1/1 http://www.topografix.com/GPX/1/1/gpx.xsd" version="1.1" creator="VisuGPX - https://www.visugpx.com">
  <metadata>
    <name>Randonnee Bezins Garraux</name>
    <desc><![CDATA[randonnee de moyenne montagne  avec un dénivelé moyen]]></desc>
  </metadata>
  <trk>
    <name><![CDATA[2018-03-14 17:22:58]]></name>
    <trkseg>
      <trkpt lat="42.93258" lon="0.68984">
        <ele>756.69</ele>
        <time>2018-03-14T13:02:27Z</time>
      </trkpt>
      <trkpt lat="42.9326" lon="0.68978">
        <ele>755.73</ele>
        <time>2018-03-14T13:02:43Z</time>
      </trkpt>
      <trkpt lat="42.93261" lon="0.68975">
        <ele>755.73</ele>
        <time>2018-03-14T13:02:46Z</time>
      </trkpt>
      <trkpt lat="42.93264" lon="0.6894">
        <ele>755.73</ele>
        <time>2018-03-14T13:03:10Z</time>
      </trkpt>
      <trkpt lat="42.93264" lon="0.68938">
        <ele>756.69</ele>
        <time>2018-03-14T13:03:11Z</time>
      </trkpt>
      <trkpt lat="42.93262" lon="0.68924">
        <ele>757.66</ele>
        <time>2018-03-14T13:03:24Z</time>
      </trkpt>
      <trkpt lat="42.93262" lon="0.68896">
        <ele>760.54</ele>
        <time>2018-03-14T13:03:43Z</time>
      </trkpt>
      <trkpt lat="42.93258" lon="0.68874">
        <ele>758.14</ele>
        <time>2018-03-14T13:04:00Z</time>
      </trkpt>
      <trkpt lat="42.93257" lon="0.68871">
        <ele>752.85</ele>
        <time>2018-03-14T13:04:02Z</time>
      </trkpt>
      <trkpt lat="42.93256" lon="0.68868">
        <ele>748.04</ele>
        <time>2018-03-14T13:04:04Z</time>
      </trkpt>
      <trkpt lat="42.93255" lon="0.68866">
        <ele>743.72</ele>
        <time>2018-03-14T13:04:06Z</time>
      </trkpt>
      <trkpt lat="42.93254" lon="0.68863">
        <ele>739.39</ele>
        <time>2018-03-14T13:04:08Z</time>
      </trkpt>
      <trkpt lat="42.93253" lon="0.68861">
        <ele>735.55</ele>
        <time>2018-03-14T13:04:10Z</time>
      </trkpt>
      <trkpt lat="42.93253" lon="0.68859">
        <ele>732.18</ele>
        <time>2018-03-14T13:04:12Z</time>
      </trkpt>
      <trkpt lat="42.93253" lon="0.68857">
        <ele>728.82</ele>
        <time>2018-03-14T13:04:14Z</time>
      </trkpt>
      <trkpt lat="42.93253" lon="0.68856">
        <ele>725.45</ele>
        <time>2018-03-14T13:04:16Z</time>
      </trkpt>
      <trkpt lat="42.93253" lon="0.68852">
        <ele>721.13</ele>
        <time>2018-03-14T13:04:19Z</time>
      </trkpt>
      <trkpt lat="42.93253" lon="0.68847">
        <ele>717.28</ele>
        <time>2018-03-14T13:04:23Z</time>
      </trkpt>
      <trkpt lat="42.93253" lon="0.68843">
        <ele>714.4</ele>
        <time>2018-03-14T13:04:26Z</time>
      </trkpt>
      <trkpt lat="42.93253" lon="0.6884">
        <ele>711.51</ele>
        <time>2018-03-14T13:04:29Z</time>
      </trkpt>
      <trkpt lat="42.93254" lon="0.68835">
        <ele>709.11</ele>
        <time>2018-03-14T13:04:32Z</time>
      </trkpt>
      <trkpt lat="42.93253" lon="0.6883">
        <ele>705.26</ele>
        <time>2018-03-14T13:04:37Z</time>
      </trkpt>
      <trkpt lat="42.93255" lon="0.68827">
        <ele>704.3</ele>
        <time>2018-03-14T13:04:40Z</time>
      </trkpt>
      <trkpt lat="42.93257" lon="0.68818">
        <ele>701.42</ele>
        <time>2018-03-14T13:04:47Z</time>
      </trkpt>
      <trkpt lat="42.93258" lon="0.68808">
        <ele>698.05</ele>
        <time>2018-03-14T13:04:54Z</time>
      </trkpt>
      <trkpt lat="42.9326" lon="0.68792">
        <ele>695.17</ele>
        <time>2018-03-14T13:05:07Z</time>
      </trkpt>
      <trkpt lat="42.93269" lon="0.68778">
        <ele>691.81</ele>
        <time>2018-03-14T13:05:18Z</time>
      </trkpt>
      <trkpt lat="42.93275" lon="0.68759">
        <ele>690.36</ele>
        <time>2018-03-14T13:05:37Z</time>
      </trkpt>
      <trkpt lat="42.93273" lon="0.6876">
        <ele>687</ele>
        <time>2018-03-14T13:05:51Z</time>
      </trkpt>
      <trkpt lat="42.93283" lon="0.68752">
        <ele>684.12</ele>
        <time>2018-03-14T13:06:07Z</time>
      </trkpt>
      <trkpt lat="42.93282" lon="0.68749">
        <ele>684.6</ele>
        <time>2018-03-14T13:06:09Z</time>
      </trkpt>
      <trkpt lat="42.93284" lon="0.68732">
        <ele>687</ele>
        <time>2018-03-14T13:06:20Z</time>
      </trkpt>
      <trkpt lat="42.93287" lon="0.68716">
        <ele>690.36</ele>
        <time>2018-03-14T13:06:31Z</time>
      </trkpt>
      <trkpt lat="42.9329" lon="0.68708">
        <ele>691.33</ele>
        <time>2018-03-14T13:06:36Z</time>
      </trkpt>
      <trkpt lat="42.93291" lon="0.68707">
        <ele>691.81</ele>
        <time>2018-03-14T13:06:37Z</time>
      </trkpt>
      <trkpt lat="42.93291" lon="0.68706">
        <ele>691.81</ele>
        <time>2018-03-14T13:06:38Z</time>
      </trkpt>
      <trkpt lat="42.93294" lon="0.68696">
        <ele>693.25</ele>
        <time>2018-03-14T13:06:46Z</time>
      </trkpt>
      <trkpt lat="42.93294" lon="0.68694">
        <ele>694.21</ele>
        <time>2018-03-14T13:06:47Z</time>
      </trkpt>
      <trkpt lat="42.93294" lon="0.68693">
        <ele>694.21</ele>
        <time>2018-03-14T13:06:48Z</time>
      </trkpt>
      <trkpt lat="42.93294" lon="0.6869">
        <ele>695.17</ele>
        <time>2018-03-14T13:06:50Z</time>
      </trkpt>
      <trkpt lat="42.93294" lon="0.68688">
        <ele>695.17</ele>
        <time>2018-03-14T13:06:51Z</time>
      </trkpt>
      <trkpt lat="42.93294" lon="0.68687">
        <ele>695.17</ele>
        <time>2018-03-14T13:06:52Z</time>
      </trkpt>
      <trkpt lat="42.93294" lon="0.68676">
        <ele>697.09</ele>
        <time>2018-03-14T13:07:01Z</time>
      </trkpt>
      <trkpt lat="42.93296" lon="0.68672">
        <ele>697.57</ele>
        <time>2018-03-14T13:07:05Z</time>
      </trkpt>
      <trkpt lat="42.93297" lon="0.68669">
        <ele>698.05</ele>
        <time>2018-03-14T13:07:07Z</time>
      </trkpt>
      <trkpt lat="42.93297" lon="0.68665">
        <ele>699.02</ele>
        <time>2018-03-14T13:07:10Z</time>
      </trkpt>
      <trkpt lat="42.93305" lon="0.68652">
        <ele>700.46</ele>
        <time>2018-03-14T13:07:23Z</time>
      </trkpt>
      <trkpt lat="42.93307" lon="0.68646">
        <ele>700.94</ele>
        <time>2018-03-14T13:07:28Z</time>
      </trkpt>
      <trkpt lat="42.93307" lon="0.68644">
        <ele>700.94</ele>
        <time>2018-03-14T13:07:29Z</time>
      </trkpt>
      <trkpt lat="42.93307" lon="0.68643">
        <ele>701.42</ele>
        <time>2018-03-14T13:07:30Z</time>
      </trkpt>
      <trkpt lat="42.93306" lon="0.68625">
        <ele>702.38</ele>
        <time>2018-03-14T13:07:44Z</time>
      </trkpt>
      <trkpt lat="42.93304" lon="0.68605">
        <ele>703.82</ele>
        <time>2018-03-14T13:08:00Z</time>
      </trkpt>
      <trkpt lat="42.93302" lon="0.68589">
        <ele>704.78</ele>
        <time>2018-03-14T13:08:12Z</time>
      </trkpt>
      <trkpt lat="42.93298" lon="0.68573">
        <ele>707.19</ele>
        <time>2018-03-14T13:08:25Z</time>
      </trkpt>
      <trkpt lat="42.93298" lon="0.68558">
        <ele>710.55</ele>
        <time>2018-03-14T13:08:38Z</time>
      </trkpt>
      <trkpt lat="42.93302" lon="0.68543">
        <ele>711.99</ele>
        <time>2018-03-14T13:08:50Z</time>
      </trkpt>
      <trkpt lat="42.93305" lon="0.68534">
        <ele>713.44</ele>
        <time>2018-03-14T13:08:57Z</time>
      </trkpt>
      <trkpt lat="42.93306" lon="0.68533">
        <ele>713.44</ele>
        <time>2018-03-14T13:08:58Z</time>
      </trkpt>
      <trkpt lat="42.93308" lon="0.68529">
        <ele>713.44</ele>
        <time>2018-03-14T13:09:02Z</time>
      </trkpt>
      <trkpt lat="42.93309" lon="0.68527">
        <ele>713.92</ele>
        <time>2018-03-14T13:09:03Z</time>
      </trkpt>
      <trkpt lat="42.93309" lon="0.68525">
        <ele>713.92</ele>
        <time>2018-03-14T13:09:04Z</time>
      </trkpt>
      <trkpt lat="42.93309" lon="0.68524">
        <ele>713.92</ele>
        <time>2018-03-14T13:09:05Z</time>
      </trkpt>
      <trkpt lat="42.93311" lon="0.6852">
        <ele>714.4</ele>
        <time>2018-03-14T13:09:08Z</time>
      </trkpt>
      <trkpt lat="42.93316" lon="0.68508">
        <ele>715.84</ele>
        <time>2018-03-14T13:09:20Z</time>
      </trkpt>
      <trkpt lat="42.93324" lon="0.68491">
        <ele>717.28</ele>
        <time>2018-03-14T13:09:33Z</time>
      </trkpt>
      <trkpt lat="42.93326" lon="0.68487">
        <ele>717.76</ele>
        <time>2018-03-14T13:09:37Z</time>
      </trkpt>
      <trkpt lat="42.93327" lon="0.68485">
        <ele>718.72</ele>
        <time>2018-03-14T13:09:47Z</time>
      </trkpt>
      <trkpt lat="42.93329" lon="0.68482">
        <ele>718.72</ele>
        <time>2018-03-14T13:09:53Z</time>
      </trkpt>
      <trkpt lat="42.93336" lon="0.68464">
        <ele>720.16</ele>
        <time>2018-03-14T13:10:09Z</time>
      </trkpt>
      <trkpt lat="42.93338" lon="0.68462">
        <ele>720.65</ele>
        <time>2018-03-14T13:10:12Z</time>
      </trkpt>
      <trkpt lat="42.93339" lon="0.68458">
        <ele>721.13</ele>
        <time>2018-03-14T13:10:16Z</time>
      </trkpt>
      <trkpt lat="42.9334" lon="0.68456">
        <ele>721.13</ele>
        <time>2018-03-14T13:10:17Z</time>
      </trkpt>
      <trkpt lat="42.9334" lon="0.68455">
        <ele>721.13</ele>
        <time>2018-03-14T13:10:18Z</time>
      </trkpt>
      <trkpt lat="42.93341" lon="0.68453">
        <ele>721.61</ele>
        <time>2018-03-14T13:10:19Z</time>
      </trkpt>
      <trkpt lat="42.93342" lon="0.68452">
        <ele>721.61</ele>
        <time>2018-03-14T13:10:21Z</time>
      </trkpt>
      <trkpt lat="42.93348" lon="0.6844">
        <ele>723.05</ele>
        <time>2018-03-14T13:10:31Z</time>
      </trkpt>
      <trkpt lat="42.93349" lon="0.68439">
        <ele>723.53</ele>
        <time>2018-03-14T13:10:32Z</time>
      </trkpt>
      <trkpt lat="42.93351" lon="0.68427">
        <ele>725.45</ele>
        <time>2018-03-14T13:10:43Z</time>
      </trkpt>
      <trkpt lat="42.93352" lon="0.68426">
        <ele>725.93</ele>
        <time>2018-03-14T13:10:44Z</time>
      </trkpt>
      <trkpt lat="42.93356" lon="0.68413">
        <ele>727.86</ele>
        <time>2018-03-14T13:10:56Z</time>
      </trkpt>
      <trkpt lat="42.93359" lon="0.68406">
        <ele>729.3</ele>
        <time>2018-03-14T13:11:02Z</time>
      </trkpt>
      <trkpt lat="42.93366" lon="0.68394">
        <ele>731.22</ele>
        <time>2018-03-14T13:11:14Z</time>
      </trkpt>
      <trkpt lat="42.93372" lon="0.68384">
        <ele>732.18</ele>
        <time>2018-03-14T13:11:23Z</time>
      </trkpt>
      <trkpt lat="42.93375" lon="0.6838">
        <ele>733.14</ele>
        <time>2018-03-14T13:11:27Z</time>
      </trkpt>
      <trkpt lat="42.93379" lon="0.68374">
        <ele>734.1</ele>
        <time>2018-03-14T13:11:33Z</time>
      </trkpt>
      <trkpt lat="42.93381" lon="0.68371">
        <ele>734.58</ele>
        <time>2018-03-14T13:11:36Z</time>
      </trkpt>
      <trkpt lat="42.93383" lon="0.68367">
        <ele>735.07</ele>
        <time>2018-03-14T13:11:40Z</time>
      </trkpt>
      <trkpt lat="42.93389" lon="0.68351">
        <ele>736.99</ele>
        <time>2018-03-14T13:11:54Z</time>
      </trkpt>
      <trkpt lat="42.93394" lon="0.68331">
        <ele>737.95</ele>
        <time>2018-03-14T13:12:08Z</time>
      </trkpt>
      <trkpt lat="42.93397" lon="0.68323">
        <ele>739.39</ele>
        <time>2018-03-14T13:12:14Z</time>
      </trkpt>
      <trkpt lat="42.93398" lon="0.68321">
        <ele>739.39</ele>
        <time>2018-03-14T13:12:15Z</time>
      </trkpt>
      <trkpt lat="42.93401" lon="0.68316">
        <ele>739.87</ele>
        <time>2018-03-14T13:12:20Z</time>
      </trkpt>
      <trkpt lat="42.93403" lon="0.68314">
        <ele>740.35</ele>
        <time>2018-03-14T13:12:23Z</time>
      </trkpt>
      <trkpt lat="42.93413" lon="0.68302">
        <ele>742.28</ele>
        <time>2018-03-14T13:12:36Z</time>
      </trkpt>
      <trkpt lat="42.93416" lon="0.68297">
        <ele>742.28</ele>
        <time>2018-03-14T13:12:41Z</time>
      </trkpt>
      <trkpt lat="42.93421" lon="0.68292">
        <ele>742.76</ele>
        <time>2018-03-14T13:12:46Z</time>
      </trkpt>
      <trkpt lat="42.93423" lon="0.68285">
        <ele>743.72</ele>
        <time>2018-03-14T13:12:51Z</time>
      </trkpt>
      <trkpt lat="42.93424" lon="0.68285">
        <ele>743.72</ele>
        <time>2018-03-14T13:12:52Z</time>
      </trkpt>
      <trkpt lat="42.93428" lon="0.68281">
        <ele>744.2</ele>
        <time>2018-03-14T13:12:56Z</time>
      </trkpt>
      <trkpt lat="42.93433" lon="0.68271">
        <ele>745.16</ele>
        <time>2018-03-14T13:13:05Z</time>
      </trkpt>
      <trkpt lat="42.93441" lon="0.6826">
        <ele>747.08</ele>
        <time>2018-03-14T13:13:17Z</time>
      </trkpt>
      <trkpt lat="42.93442" lon="0.68259">
        <ele>747.08</ele>
        <time>2018-03-14T13:13:18Z</time>
      </trkpt>
      <trkpt lat="42.93443" lon="0.68258">
        <ele>747.56</ele>
        <time>2018-03-14T13:13:19Z</time>
      </trkpt>
      <trkpt lat="42.93444" lon="0.68257">
        <ele>747.56</ele>
        <time>2018-03-14T13:13:20Z</time>
      </trkpt>
      <trkpt lat="42.93447" lon="0.68253">
        <ele>748.04</ele>
        <time>2018-03-14T13:13:24Z</time>
      </trkpt>
      <trkpt lat="42.93457" lon="0.68244">
        <ele>749.49</ele>
        <time>2018-03-14T13:13:37Z</time>
      </trkpt>
      <trkpt lat="42.93459" lon="0.68244">
        <ele>749.97</ele>
        <time>2018-03-14T13:13:59Z</time>
      </trkpt>
      <trkpt lat="42.93458" lon="0.68247">
        <ele>749.97</ele>
        <time>2018-03-14T13:14:15Z</time>
      </trkpt>
      <trkpt lat="42.93458" lon="0.68244">
        <ele>750.93</ele>
        <time>2018-03-14T13:14:29Z</time>
      </trkpt>
      <trkpt lat="42.93462" lon="0.68239">
        <ele>751.41</ele>
        <time>2018-03-14T13:14:34Z</time>
      </trkpt>
      <trkpt lat="42.93465" lon="0.68237">
        <ele>752.37</ele>
        <time>2018-03-14T13:14:37Z</time>
      </trkpt>
      <trkpt lat="42.93466" lon="0.68236">
        <ele>752.85</ele>
        <time>2018-03-14T13:14:39Z</time>
      </trkpt>
      <trkpt lat="42.93467" lon="0.68235">
        <ele>752.85</ele>
        <time>2018-03-14T13:14:40Z</time>
      </trkpt>
      <trkpt lat="42.93474" lon="0.68221">
        <ele>755.25</ele>
        <time>2018-03-14T13:14:54Z</time>
      </trkpt>
      <trkpt lat="42.93478" lon="0.68212">
        <ele>757.66</ele>
        <time>2018-03-14T13:15:02Z</time>
      </trkpt>
      <trkpt lat="42.93478" lon="0.6821">
        <ele>757.66</ele>
        <time>2018-03-14T13:15:03Z</time>
      </trkpt>
      <trkpt lat="42.93479" lon="0.68204">
        <ele>758.62</ele>
        <time>2018-03-14T13:15:08Z</time>
      </trkpt>
      <trkpt lat="42.93479" lon="0.68203">
        <ele>758.62</ele>
        <time>2018-03-14T13:15:09Z</time>
      </trkpt>
      <trkpt lat="42.93478" lon="0.68193">
        <ele>760.06</ele>
        <time>2018-03-14T13:15:18Z</time>
      </trkpt>
      <trkpt lat="42.93477" lon="0.68187">
        <ele>760.54</ele>
        <time>2018-03-14T13:15:22Z</time>
      </trkpt>
      <trkpt lat="42.93476" lon="0.68184">
        <ele>761.02</ele>
        <time>2018-03-14T13:15:25Z</time>
      </trkpt>
      <trkpt lat="42.93474" lon="0.68182">
        <ele>761.98</ele>
        <time>2018-03-14T13:15:27Z</time>
      </trkpt>
      <trkpt lat="42.93473" lon="0.68182">
        <ele>761.98</ele>
        <time>2018-03-14T13:15:28Z</time>
      </trkpt>
      <trkpt lat="42.93472" lon="0.68181">
        <ele>761.98</ele>
        <time>2018-03-14T13:15:29Z</time>
      </trkpt>
      <trkpt lat="42.93471" lon="0.6818">
        <ele>761.98</ele>
        <time>2018-03-14T13:15:30Z</time>
      </trkpt>
      <trkpt lat="42.93469" lon="0.68176">
        <ele>762.46</ele>
        <time>2018-03-14T13:15:34Z</time>
      </trkpt>
      <trkpt lat="42.93452" lon="0.68166">
        <ele>763.9</ele>
        <time>2018-03-14T13:15:51Z</time>
      </trkpt>
      <trkpt lat="42.93434" lon="0.68162">
        <ele>765.35</ele>
        <time>2018-03-14T13:16:08Z</time>
      </trkpt>
      <trkpt lat="42.9342" lon="0.68163">
        <ele>766.79</ele>
        <time>2018-03-14T13:16:21Z</time>
      </trkpt>
      <trkpt lat="42.93418" lon="0.68162">
        <ele>766.79</ele>
        <time>2018-03-14T13:16:22Z</time>
      </trkpt>
      <trkpt lat="42.93417" lon="0.68162">
        <ele>767.27</ele>
        <time>2018-03-14T13:16:23Z</time>
      </trkpt>
      <trkpt lat="42.93416" lon="0.68161">
        <ele>767.27</ele>
        <time>2018-03-14T13:16:24Z</time>
      </trkpt>
      <trkpt lat="42.93406" lon="0.68151">
        <ele>768.71</ele>
        <time>2018-03-14T13:16:35Z</time>
      </trkpt>
      <trkpt lat="42.93402" lon="0.68146">
        <ele>769.19</ele>
        <time>2018-03-14T13:16:40Z</time>
      </trkpt>
      <trkpt lat="42.93401" lon="0.68145">
        <ele>770.15</ele>
        <time>2018-03-14T13:16:41Z</time>
      </trkpt>
      <trkpt lat="42.93399" lon="0.68143">
        <ele>770.15</ele>
        <time>2018-03-14T13:16:44Z</time>
      </trkpt>
      <trkpt lat="42.93387" lon="0.68135">
        <ele>772.08</ele>
        <time>2018-03-14T13:16:58Z</time>
      </trkpt>
      <trkpt lat="42.93377" lon="0.68122">
        <ele>774.48</ele>
        <time>2018-03-14T13:17:11Z</time>
      </trkpt>
      <trkpt lat="42.93373" lon="0.6811">
        <ele>776.4</ele>
        <time>2018-03-14T13:17:23Z</time>
      </trkpt>
      <trkpt lat="42.93367" lon="0.68092">
        <ele>779.77</ele>
        <time>2018-03-14T13:17:38Z</time>
      </trkpt>
      <trkpt lat="42.93373" lon="0.68078">
        <ele>781.21</ele>
        <time>2018-03-14T13:17:52Z</time>
      </trkpt>
      <trkpt lat="42.93374" lon="0.68077">
        <ele>781.21</ele>
        <time>2018-03-14T13:17:54Z</time>
      </trkpt>
      <trkpt lat="42.93379" lon="0.68067">
        <ele>781.21</ele>
        <time>2018-03-14T13:18:03Z</time>
      </trkpt>
      <trkpt lat="42.9338" lon="0.68065">
        <ele>781.21</ele>
        <time>2018-03-14T13:18:04Z</time>
      </trkpt>
      <trkpt lat="42.93381" lon="0.68064">
        <ele>779.77</ele>
        <time>2018-03-14T13:18:05Z</time>
      </trkpt>
      <trkpt lat="42.93381" lon="0.68063">
        <ele>779.77</ele>
        <time>2018-03-14T13:18:06Z</time>
      </trkpt>
      <trkpt lat="42.93382" lon="0.68061">
        <ele>779.77</ele>
        <time>2018-03-14T13:18:07Z</time>
      </trkpt>
      <trkpt lat="42.93383" lon="0.68046">
        <ele>779.29</ele>
        <time>2018-03-14T13:18:18Z</time>
      </trkpt>
      <trkpt lat="42.93383" lon="0.6804">
        <ele>779.29</ele>
        <time>2018-03-14T13:18:21Z</time>
      </trkpt>
      <trkpt lat="42.93383" lon="0.68038">
        <ele>779.29</ele>
        <time>2018-03-14T13:18:22Z</time>
      </trkpt>
      <trkpt lat="42.93385" lon="0.68018">
        <ele>779.29</ele>
        <time>2018-03-14T13:18:33Z</time>
      </trkpt>
      <trkpt lat="42.93384" lon="0.68015">
        <ele>780.73</ele>
        <time>2018-03-14T13:18:35Z</time>
      </trkpt>
      <trkpt lat="42.93384" lon="0.68014">
        <ele>780.73</ele>
        <time>2018-03-14T13:18:36Z</time>
      </trkpt>
      <trkpt lat="42.93383" lon="0.68012">
        <ele>781.69</ele>
        <time>2018-03-14T13:18:37Z</time>
      </trkpt>
      <trkpt lat="42.93383" lon="0.6801">
        <ele>781.69</ele>
        <time>2018-03-14T13:18:38Z</time>
      </trkpt>
      <trkpt lat="42.93383" lon="0.68005">
        <ele>782.65</ele>
        <time>2018-03-14T13:18:42Z</time>
      </trkpt>
      <trkpt lat="42.93377" lon="0.67981">
        <ele>783.13</ele>
        <time>2018-03-14T13:18:57Z</time>
      </trkpt>
      <trkpt lat="42.93375" lon="0.67976">
        <ele>783.13</ele>
        <time>2018-03-14T13:19:01Z</time>
      </trkpt>
      <trkpt lat="42.93374" lon="0.67974">
        <ele>783.13</ele>
        <time>2018-03-14T13:19:02Z</time>
      </trkpt>
      <trkpt lat="42.93368" lon="0.67953">
        <ele>783.13</ele>
        <time>2018-03-14T13:19:17Z</time>
      </trkpt>
      <trkpt lat="42.93363" lon="0.67937">
        <ele>783.61</ele>
        <time>2018-03-14T13:19:28Z</time>
      </trkpt>
      <trkpt lat="42.93359" lon="0.67925">
        <ele>784.09</ele>
        <time>2018-03-14T13:19:35Z</time>
      </trkpt>
      <trkpt lat="42.93357" lon="0.6792">
        <ele>784.57</ele>
        <time>2018-03-14T13:19:39Z</time>
      </trkpt>
      <trkpt lat="42.93346" lon="0.67898">
        <ele>785.05</ele>
        <time>2018-03-14T13:19:54Z</time>
      </trkpt>
      <trkpt lat="42.93344" lon="0.67894">
        <ele>785.05</ele>
        <time>2018-03-14T13:19:57Z</time>
      </trkpt>
      <trkpt lat="42.93335" lon="0.67877">
        <ele>785.05</ele>
        <time>2018-03-14T13:20:10Z</time>
      </trkpt>
      <trkpt lat="42.93333" lon="0.67866">
        <ele>785.53</ele>
        <time>2018-03-14T13:20:24Z</time>
      </trkpt>
      <trkpt lat="42.93333" lon="0.67854">
        <ele>786.02</ele>
        <time>2018-03-14T13:20:38Z</time>
      </trkpt>
      <trkpt lat="42.93334" lon="0.67842">
        <ele>786.5</ele>
        <time>2018-03-14T13:20:47Z</time>
      </trkpt>
      <trkpt lat="42.93332" lon="0.67828">
        <ele>788.9</ele>
        <time>2018-03-14T13:20:58Z</time>
      </trkpt>
      <trkpt lat="42.9333" lon="0.67816">
        <ele>790.82</ele>
        <time>2018-03-14T13:21:11Z</time>
      </trkpt>
      <trkpt lat="42.93329" lon="0.67803">
        <ele>792.26</ele>
        <time>2018-03-14T13:21:23Z</time>
      </trkpt>
      <trkpt lat="42.93329" lon="0.67798">
        <ele>792.74</ele>
        <time>2018-03-14T13:21:27Z</time>
      </trkpt>
      <trkpt lat="42.93328" lon="0.67787">
        <ele>795.15</ele>
        <time>2018-03-14T13:21:40Z</time>
      </trkpt>
      <trkpt lat="42.93328" lon="0.67772">
        <ele>797.07</ele>
        <time>2018-03-14T13:21:54Z</time>
      </trkpt>
      <trkpt lat="42.93331" lon="0.67758">
        <ele>799.47</ele>
        <time>2018-03-14T13:22:07Z</time>
      </trkpt>
      <trkpt lat="42.93333" lon="0.67744">
        <ele>801.4</ele>
        <time>2018-03-14T13:22:19Z</time>
      </trkpt>
      <trkpt lat="42.93333" lon="0.6773">
        <ele>803.8</ele>
        <time>2018-03-14T13:22:33Z</time>
      </trkpt>
      <trkpt lat="42.93334" lon="0.67714">
        <ele>805.24</ele>
        <time>2018-03-14T13:22:45Z</time>
      </trkpt>
      <trkpt lat="42.93335" lon="0.67696">
        <ele>807.16</ele>
        <time>2018-03-14T13:22:58Z</time>
      </trkpt>
      <trkpt lat="42.93333" lon="0.6768">
        <ele>810.05</ele>
        <time>2018-03-14T13:23:12Z</time>
      </trkpt>
      <trkpt lat="42.93331" lon="0.67666">
        <ele>811.97</ele>
        <time>2018-03-14T13:23:23Z</time>
      </trkpt>
      <trkpt lat="42.93332" lon="0.67652">
        <ele>814.37</ele>
        <time>2018-03-14T13:23:35Z</time>
      </trkpt>
      <trkpt lat="42.93335" lon="0.67635">
        <ele>816.78</ele>
        <time>2018-03-14T13:23:50Z</time>
      </trkpt>
      <trkpt lat="42.93339" lon="0.67617">
        <ele>819.66</ele>
        <time>2018-03-14T13:24:07Z</time>
      </trkpt>
      <trkpt lat="42.93343" lon="0.67601">
        <ele>822.06</ele>
        <time>2018-03-14T13:24:23Z</time>
      </trkpt>
      <trkpt lat="42.93346" lon="0.6759">
        <ele>823.99</ele>
        <time>2018-03-14T13:24:33Z</time>
      </trkpt>
      <trkpt lat="42.93349" lon="0.67579">
        <ele>825.91</ele>
        <time>2018-03-14T13:24:44Z</time>
      </trkpt>
      <trkpt lat="42.93357" lon="0.67568">
        <ele>827.83</ele>
        <time>2018-03-14T13:24:58Z</time>
      </trkpt>
      <trkpt lat="42.93362" lon="0.67555">
        <ele>830.72</ele>
        <time>2018-03-14T13:25:11Z</time>
      </trkpt>
      <trkpt lat="42.93366" lon="0.67541">
        <ele>833.12</ele>
        <time>2018-03-14T13:25:25Z</time>
      </trkpt>
      <trkpt lat="42.93368" lon="0.67534">
        <ele>834.56</ele>
        <time>2018-03-14T13:25:32Z</time>
      </trkpt>
      <trkpt lat="42.93371" lon="0.67521">
        <ele>836.48</ele>
        <time>2018-03-14T13:25:44Z</time>
      </trkpt>
      <trkpt lat="42.93373" lon="0.67511">
        <ele>838.41</ele>
        <time>2018-03-14T13:25:56Z</time>
      </trkpt>
      <trkpt lat="42.93375" lon="0.67505">
        <ele>839.85</ele>
        <time>2018-03-14T13:26:10Z</time>
      </trkpt>
      <trkpt lat="42.93381" lon="0.67498">
        <ele>840.81</ele>
        <time>2018-03-14T13:26:22Z</time>
      </trkpt>
      <trkpt lat="42.93386" lon="0.67488">
        <ele>842.25</ele>
        <time>2018-03-14T13:26:34Z</time>
      </trkpt>
      <trkpt lat="42.93391" lon="0.67476">
        <ele>843.21</ele>
        <time>2018-03-14T13:26:47Z</time>
      </trkpt>
      <trkpt lat="42.93394" lon="0.67471">
        <ele>844.66</ele>
        <time>2018-03-14T13:26:53Z</time>
      </trkpt>
      <trkpt lat="42.93402" lon="0.67461">
        <ele>847.06</ele>
        <time>2018-03-14T13:27:06Z</time>
      </trkpt>
      <trkpt lat="42.93404" lon="0.67457">
        <ele>848.02</ele>
        <time>2018-03-14T13:27:11Z</time>
      </trkpt>
      <trkpt lat="42.93409" lon="0.67447">
        <ele>849.94</ele>
        <time>2018-03-14T13:27:23Z</time>
      </trkpt>
      <trkpt lat="42.93412" lon="0.67442">
        <ele>850.42</ele>
        <time>2018-03-14T13:27:28Z</time>
      </trkpt>
      <trkpt lat="42.93414" lon="0.6743">
        <ele>852.35</ele>
        <time>2018-03-14T13:27:41Z</time>
      </trkpt>
      <trkpt lat="42.93417" lon="0.67418">
        <ele>854.27</ele>
        <time>2018-03-14T13:27:55Z</time>
      </trkpt>
      <trkpt lat="42.93419" lon="0.67406">
        <ele>856.67</ele>
        <time>2018-03-14T13:28:11Z</time>
      </trkpt>
      <trkpt lat="42.93419" lon="0.67396">
        <ele>858.59</ele>
        <time>2018-03-14T13:28:23Z</time>
      </trkpt>
      <trkpt lat="42.93419" lon="0.6739">
        <ele>860.04</ele>
        <time>2018-03-14T13:28:37Z</time>
      </trkpt>
      <trkpt lat="42.93419" lon="0.67375">
        <ele>862.44</ele>
        <time>2018-03-14T13:28:49Z</time>
      </trkpt>
      <trkpt lat="42.93419" lon="0.67363">
        <ele>863.88</ele>
        <time>2018-03-14T13:29:00Z</time>
      </trkpt>
      <trkpt lat="42.93424" lon="0.67351">
        <ele>866.29</ele>
        <time>2018-03-14T13:29:14Z</time>
      </trkpt>
      <trkpt lat="42.93424" lon="0.67335">
        <ele>868.21</ele>
        <time>2018-03-14T13:29:29Z</time>
      </trkpt>
      <trkpt lat="42.93429" lon="0.67328">
        <ele>869.17</ele>
        <time>2018-03-14T13:29:40Z</time>
      </trkpt>
      <trkpt lat="42.93435" lon="0.67323">
        <ele>869.65</ele>
        <time>2018-03-14T13:29:53Z</time>
      </trkpt>
      <trkpt lat="42.93434" lon="0.67313">
        <ele>871.57</ele>
        <time>2018-03-14T13:30:05Z</time>
      </trkpt>
      <trkpt lat="42.93434" lon="0.67301">
        <ele>873.01</ele>
        <time>2018-03-14T13:30:17Z</time>
      </trkpt>
      <trkpt lat="42.93439" lon="0.67288">
        <ele>875.9</ele>
        <time>2018-03-14T13:30:32Z</time>
      </trkpt>
      <trkpt lat="42.93444" lon="0.67278">
        <ele>878.78</ele>
        <time>2018-03-14T13:30:47Z</time>
      </trkpt>
      <trkpt lat="42.93449" lon="0.6728">
        <ele>881.19</ele>
        <time>2018-03-14T13:30:59Z</time>
      </trkpt>
      <trkpt lat="42.93452" lon="0.6728">
        <ele>882.15</ele>
        <time>2018-03-14T13:31:07Z</time>
      </trkpt>
      <trkpt lat="42.93455" lon="0.67269">
        <ele>884.07</ele>
        <time>2018-03-14T13:31:20Z</time>
      </trkpt>
      <trkpt lat="42.93455" lon="0.67265">
        <ele>885.03</ele>
        <time>2018-03-14T13:31:42Z</time>
      </trkpt>
      <trkpt lat="42.93458" lon="0.67253">
        <ele>886.95</ele>
        <time>2018-03-14T13:31:57Z</time>
      </trkpt>
      <trkpt lat="42.93459" lon="0.67234">
        <ele>889.84</ele>
        <time>2018-03-14T13:32:13Z</time>
      </trkpt>
      <trkpt lat="42.93461" lon="0.67222">
        <ele>891.76</ele>
        <time>2018-03-14T13:32:28Z</time>
      </trkpt>
      <trkpt lat="42.93465" lon="0.67214">
        <ele>892.72</ele>
        <time>2018-03-14T13:32:39Z</time>
      </trkpt>
      <trkpt lat="42.93473" lon="0.67217">
        <ele>894.16</ele>
        <time>2018-03-14T13:32:54Z</time>
      </trkpt>
      <trkpt lat="42.93478" lon="0.67228">
        <ele>895.61</ele>
        <time>2018-03-14T13:33:06Z</time>
      </trkpt>
      <trkpt lat="42.93485" lon="0.67247">
        <ele>897.53</ele>
        <time>2018-03-14T13:33:23Z</time>
      </trkpt>
      <trkpt lat="42.9349" lon="0.67268">
        <ele>899.45</ele>
        <time>2018-03-14T13:33:40Z</time>
      </trkpt>
      <trkpt lat="42.93492" lon="0.67284">
        <ele>901.37</ele>
        <time>2018-03-14T13:33:54Z</time>
      </trkpt>
      <trkpt lat="42.93494" lon="0.6729">
        <ele>902.82</ele>
        <time>2018-03-14T13:34:09Z</time>
      </trkpt>
      <trkpt lat="42.93496" lon="0.67285">
        <ele>904.26</ele>
        <time>2018-03-14T13:34:23Z</time>
      </trkpt>
      <trkpt lat="42.93494" lon="0.67277">
        <ele>905.22</ele>
        <time>2018-03-14T13:34:38Z</time>
      </trkpt>
      <trkpt lat="42.93494" lon="0.67263">
        <ele>908.1</ele>
        <time>2018-03-14T13:34:53Z</time>
      </trkpt>
      <trkpt lat="42.93495" lon="0.6726">
        <ele>909.06</ele>
        <time>2018-03-14T13:35:10Z</time>
      </trkpt>
      <trkpt lat="42.93498" lon="0.67247">
        <ele>910.51</ele>
        <time>2018-03-14T13:35:27Z</time>
      </trkpt>
      <trkpt lat="42.93501" lon="0.67237">
        <ele>912.43</ele>
        <time>2018-03-14T13:35:39Z</time>
      </trkpt>
      <trkpt lat="42.93502" lon="0.67222">
        <ele>914.83</ele>
        <time>2018-03-14T13:35:54Z</time>
      </trkpt>
      <trkpt lat="42.93504" lon="0.6721">
        <ele>916.27</ele>
        <time>2018-03-14T13:36:07Z</time>
      </trkpt>
      <trkpt lat="42.93507" lon="0.67201">
        <ele>918.2</ele>
        <time>2018-03-14T13:36:19Z</time>
      </trkpt>
      <trkpt lat="42.93509" lon="0.67196">
        <ele>918.68</ele>
        <time>2018-03-14T13:36:24Z</time>
      </trkpt>
      <trkpt lat="42.93513" lon="0.67185">
        <ele>920.12</ele>
        <time>2018-03-14T13:36:36Z</time>
      </trkpt>
      <trkpt lat="42.93519" lon="0.67168">
        <ele>922.52</ele>
        <time>2018-03-14T13:36:53Z</time>
      </trkpt>
      <trkpt lat="42.9352" lon="0.67166">
        <ele>922.52</ele>
        <time>2018-03-14T13:36:55Z</time>
      </trkpt>
      <trkpt lat="42.93521" lon="0.67151">
        <ele>924.45</ele>
        <time>2018-03-14T13:37:08Z</time>
      </trkpt>
      <trkpt lat="42.93525" lon="0.67139">
        <ele>925.89</ele>
        <time>2018-03-14T13:37:19Z</time>
      </trkpt>
      <trkpt lat="42.93525" lon="0.67128">
        <ele>927.33</ele>
        <time>2018-03-14T13:37:27Z</time>
      </trkpt>
      <trkpt lat="42.9352" lon="0.67108">
        <ele>928.29</ele>
        <time>2018-03-14T13:37:41Z</time>
      </trkpt>
      <trkpt lat="42.93515" lon="0.67093">
        <ele>929.73</ele>
        <time>2018-03-14T13:37:53Z</time>
      </trkpt>
      <trkpt lat="42.93511" lon="0.6708">
        <ele>931.65</ele>
        <time>2018-03-14T13:38:07Z</time>
      </trkpt>
      <trkpt lat="42.9352" lon="0.67072">
        <ele>934.06</ele>
        <time>2018-03-14T13:38:20Z</time>
      </trkpt>
      <trkpt lat="42.93525" lon="0.67075">
        <ele>935.02</ele>
        <time>2018-03-14T13:38:28Z</time>
      </trkpt>
      <trkpt lat="42.9353" lon="0.67077">
        <ele>935.02</ele>
        <time>2018-03-14T13:38:32Z</time>
      </trkpt>
      <trkpt lat="42.9354" lon="0.67087">
        <ele>936.46</ele>
        <time>2018-03-14T13:38:45Z</time>
      </trkpt>
      <trkpt lat="42.93549" lon="0.67102">
        <ele>937.9</ele>
        <time>2018-03-14T13:38:59Z</time>
      </trkpt>
      <trkpt lat="42.93551" lon="0.67107">
        <ele>938.86</ele>
        <time>2018-03-14T13:39:04Z</time>
      </trkpt>
      <trkpt lat="42.93555" lon="0.67122">
        <ele>940.79</ele>
        <time>2018-03-14T13:39:17Z</time>
      </trkpt>
      <trkpt lat="42.93558" lon="0.67132">
        <ele>943.19</ele>
        <time>2018-03-14T13:39:28Z</time>
      </trkpt>
      <trkpt lat="42.93559" lon="0.67151">
        <ele>945.59</ele>
        <time>2018-03-14T13:39:42Z</time>
      </trkpt>
      <trkpt lat="42.93562" lon="0.67148">
        <ele>946.07</ele>
        <time>2018-03-14T13:39:50Z</time>
      </trkpt>
      <trkpt lat="42.93563" lon="0.67134">
        <ele>948</ele>
        <time>2018-03-14T13:40:04Z</time>
      </trkpt>
      <trkpt lat="42.93564" lon="0.67118">
        <ele>950.4</ele>
        <time>2018-03-14T13:40:18Z</time>
      </trkpt>
      <trkpt lat="42.93565" lon="0.67111">
        <ele>950.88</ele>
        <time>2018-03-14T13:40:25Z</time>
      </trkpt>
      <trkpt lat="42.93562" lon="0.67091">
        <ele>953.28</ele>
        <time>2018-03-14T13:40:39Z</time>
      </trkpt>
      <trkpt lat="42.93562" lon="0.67074">
        <ele>955.69</ele>
        <time>2018-03-14T13:40:53Z</time>
      </trkpt>
      <trkpt lat="42.93563" lon="0.67067">
        <ele>956.65</ele>
        <time>2018-03-14T13:41:01Z</time>
      </trkpt>
      <trkpt lat="42.93565" lon="0.67055">
        <ele>958.09</ele>
        <time>2018-03-14T13:41:12Z</time>
      </trkpt>
      <trkpt lat="42.93567" lon="0.6704">
        <ele>958.57</ele>
        <time>2018-03-14T13:41:25Z</time>
      </trkpt>
      <trkpt lat="42.93567" lon="0.6703">
        <ele>959.53</ele>
        <time>2018-03-14T13:41:32Z</time>
      </trkpt>
      <trkpt lat="42.93568" lon="0.67015">
        <ele>960.49</ele>
        <time>2018-03-14T13:41:45Z</time>
      </trkpt>
      <trkpt lat="42.93569" lon="0.66996">
        <ele>962.42</ele>
        <time>2018-03-14T13:41:59Z</time>
      </trkpt>
      <trkpt lat="42.93571" lon="0.66986">
        <ele>963.38</ele>
        <time>2018-03-14T13:42:10Z</time>
      </trkpt>
      <trkpt lat="42.93578" lon="0.66975">
        <ele>965.78</ele>
        <time>2018-03-14T13:42:24Z</time>
      </trkpt>
      <trkpt lat="42.93585" lon="0.66965">
        <ele>968.18</ele>
        <time>2018-03-14T13:42:36Z</time>
      </trkpt>
      <trkpt lat="42.93591" lon="0.66952">
        <ele>969.63</ele>
        <time>2018-03-14T13:42:50Z</time>
      </trkpt>
      <trkpt lat="42.93596" lon="0.66947">
        <ele>971.07</ele>
        <time>2018-03-14T13:43:01Z</time>
      </trkpt>
      <trkpt lat="42.93606" lon="0.66936">
        <ele>972.51</ele>
        <time>2018-03-14T13:43:16Z</time>
      </trkpt>
      <trkpt lat="42.9361" lon="0.66933">
        <ele>972.99</ele>
        <time>2018-03-14T13:43:21Z</time>
      </trkpt>
      <trkpt lat="42.93618" lon="0.66922">
        <ele>974.43</ele>
        <time>2018-03-14T13:43:35Z</time>
      </trkpt>
      <trkpt lat="42.93624" lon="0.66909">
        <ele>976.84</ele>
        <time>2018-03-14T13:43:48Z</time>
      </trkpt>
      <trkpt lat="42.93632" lon="0.66898">
        <ele>978.76</ele>
        <time>2018-03-14T13:44:00Z</time>
      </trkpt>
      <trkpt lat="42.93637" lon="0.66888">
        <ele>980.2</ele>
        <time>2018-03-14T13:44:12Z</time>
      </trkpt>
      <trkpt lat="42.9364" lon="0.66876">
        <ele>981.64</ele>
        <time>2018-03-14T13:44:24Z</time>
      </trkpt>
      <trkpt lat="42.93643" lon="0.66865">
        <ele>983.57</ele>
        <time>2018-03-14T13:44:34Z</time>
      </trkpt>
      <trkpt lat="42.93646" lon="0.66854">
        <ele>984.53</ele>
        <time>2018-03-14T13:44:44Z</time>
      </trkpt>
      <trkpt lat="42.93648" lon="0.66841">
        <ele>986.93</ele>
        <time>2018-03-14T13:44:57Z</time>
      </trkpt>
      <trkpt lat="42.9365" lon="0.66831">
        <ele>988.37</ele>
        <time>2018-03-14T13:45:11Z</time>
      </trkpt>
      <trkpt lat="42.93652" lon="0.66816">
        <ele>990.3</ele>
        <time>2018-03-14T13:45:24Z</time>
      </trkpt>
      <trkpt lat="42.93659" lon="0.668">
        <ele>992.7</ele>
        <time>2018-03-14T13:45:40Z</time>
      </trkpt>
      <trkpt lat="42.93664" lon="0.66789">
        <ele>995.1</ele>
        <time>2018-03-14T13:45:54Z</time>
      </trkpt>
      <trkpt lat="42.93666" lon="0.66778">
        <ele>997.02</ele>
        <time>2018-03-14T13:46:07Z</time>
      </trkpt>
      <trkpt lat="42.93667" lon="0.66766">
        <ele>997.99</ele>
        <time>2018-03-14T13:46:19Z</time>
      </trkpt>
      <trkpt lat="42.9367" lon="0.66755">
        <ele>1000.39</ele>
        <time>2018-03-14T13:46:33Z</time>
      </trkpt>
      <trkpt lat="42.93673" lon="0.66752">
        <ele>1000.87</ele>
        <time>2018-03-14T13:46:51Z</time>
      </trkpt>
      <trkpt lat="42.93675" lon="0.66743">
        <ele>1002.31</ele>
        <time>2018-03-14T13:47:07Z</time>
      </trkpt>
      <trkpt lat="42.93676" lon="0.66734">
        <ele>1003.75</ele>
        <time>2018-03-14T13:47:20Z</time>
      </trkpt>
      <trkpt lat="42.93676" lon="0.66728">
        <ele>1004.23</ele>
        <time>2018-03-14T13:47:41Z</time>
      </trkpt>
      <trkpt lat="42.93672" lon="0.66722">
        <ele>1004.72</ele>
        <time>2018-03-14T13:48:06Z</time>
      </trkpt>
      <trkpt lat="42.93671" lon="0.66713">
        <ele>1007.6</ele>
        <time>2018-03-14T13:48:18Z</time>
      </trkpt>
      <trkpt lat="42.93673" lon="0.66704">
        <ele>1009.04</ele>
        <time>2018-03-14T13:48:31Z</time>
      </trkpt>
      <trkpt lat="42.93675" lon="0.66695">
        <ele>1010.48</ele>
        <time>2018-03-14T13:48:39Z</time>
      </trkpt>
      <trkpt lat="42.93681" lon="0.66681">
        <ele>1012.89</ele>
        <time>2018-03-14T13:48:53Z</time>
      </trkpt>
      <trkpt lat="42.93686" lon="0.66681">
        <ele>1013.37</ele>
        <time>2018-03-14T13:49:06Z</time>
      </trkpt>
      <trkpt lat="42.93688" lon="0.66685">
        <ele>1013.37</ele>
        <time>2018-03-14T13:49:20Z</time>
      </trkpt>
      <trkpt lat="42.93694" lon="0.66696">
        <ele>1013.37</ele>
        <time>2018-03-14T13:49:33Z</time>
      </trkpt>
      <trkpt lat="42.93697" lon="0.66701">
        <ele>1011.93</ele>
        <time>2018-03-14T13:49:39Z</time>
      </trkpt>
      <trkpt lat="42.93704" lon="0.66714">
        <ele>1010.96</ele>
        <time>2018-03-14T13:49:52Z</time>
      </trkpt>
      <trkpt lat="42.93708" lon="0.66721">
        <ele>1012.41</ele>
        <time>2018-03-14T13:50:01Z</time>
      </trkpt>
      <trkpt lat="42.93713" lon="0.66734">
        <ele>1015.77</ele>
        <time>2018-03-14T13:50:13Z</time>
      </trkpt>
      <trkpt lat="42.93714" lon="0.66747">
        <ele>1018.65</ele>
        <time>2018-03-14T13:50:28Z</time>
      </trkpt>
      <trkpt lat="42.93715" lon="0.66759">
        <ele>1020.58</ele>
        <time>2018-03-14T13:50:41Z</time>
      </trkpt>
      <trkpt lat="42.93719" lon="0.66772">
        <ele>1024.42</ele>
        <time>2018-03-14T13:50:55Z</time>
      </trkpt>
      <trkpt lat="42.93724" lon="0.66777">
        <ele>1027.31</ele>
        <time>2018-03-14T13:51:10Z</time>
      </trkpt>
      <trkpt lat="42.93728" lon="0.66783">
        <ele>1030.19</ele>
        <time>2018-03-14T13:51:22Z</time>
      </trkpt>
      <trkpt lat="42.93733" lon="0.66793">
        <ele>1033.07</ele>
        <time>2018-03-14T13:51:36Z</time>
      </trkpt>
      <trkpt lat="42.93736" lon="0.668">
        <ele>1034.52</ele>
        <time>2018-03-14T13:51:48Z</time>
      </trkpt>
      <trkpt lat="42.93736" lon="0.66809">
        <ele>1035</ele>
        <time>2018-03-14T13:52:02Z</time>
      </trkpt>
      <trkpt lat="42.93735" lon="0.66821">
        <ele>1036.44</ele>
        <time>2018-03-14T13:52:16Z</time>
      </trkpt>
      <trkpt lat="42.93735" lon="0.66828">
        <ele>1037.4</ele>
        <time>2018-03-14T13:52:32Z</time>
      </trkpt>
      <trkpt lat="42.93739" lon="0.66839">
        <ele>1037.4</ele>
        <time>2018-03-14T13:52:45Z</time>
      </trkpt>
      <trkpt lat="42.93736" lon="0.66852">
        <ele>1037.4</ele>
        <time>2018-03-14T13:53:00Z</time>
      </trkpt>
      <trkpt lat="42.93736" lon="0.66861">
        <ele>1034.52</ele>
        <time>2018-03-14T13:53:13Z</time>
      </trkpt>
      <trkpt lat="42.93735" lon="0.66865">
        <ele>1034.52</ele>
        <time>2018-03-14T13:53:17Z</time>
      </trkpt>
      <trkpt lat="42.93736" lon="0.66874">
        <ele>1034.52</ele>
        <time>2018-03-14T13:53:22Z</time>
      </trkpt>
      <trkpt lat="42.93732" lon="0.66892">
        <ele>1033.55</ele>
        <time>2018-03-14T13:53:34Z</time>
      </trkpt>
      <trkpt lat="42.93736" lon="0.66909">
        <ele>1033.07</ele>
        <time>2018-03-14T13:53:49Z</time>
      </trkpt>
      <trkpt lat="42.93738" lon="0.66918">
        <ele>1032.11</ele>
        <time>2018-03-14T13:54:01Z</time>
      </trkpt>
      <trkpt lat="42.93735" lon="0.66925">
        <ele>1031.15</ele>
        <time>2018-03-14T13:54:11Z</time>
      </trkpt>
      <trkpt lat="42.93728" lon="0.66939">
        <ele>1033.55</ele>
        <time>2018-03-14T13:54:25Z</time>
      </trkpt>
      <trkpt lat="42.93723" lon="0.66951">
        <ele>1034.52</ele>
        <time>2018-03-14T13:54:36Z</time>
      </trkpt>
      <trkpt lat="42.9372" lon="0.66963">
        <ele>1034.52</ele>
        <time>2018-03-14T13:54:47Z</time>
      </trkpt>
      <trkpt lat="42.93717" lon="0.66974">
        <ele>1035</ele>
        <time>2018-03-14T13:55:02Z</time>
      </trkpt>
      <trkpt lat="42.9371" lon="0.66992">
        <ele>1035</ele>
        <time>2018-03-14T13:55:18Z</time>
      </trkpt>
      <trkpt lat="42.93708" lon="0.66999">
        <ele>1033.55</ele>
        <time>2018-03-14T13:55:31Z</time>
      </trkpt>
      <trkpt lat="42.93708" lon="0.67007">
        <ele>1032.11</ele>
        <time>2018-03-14T13:55:44Z</time>
      </trkpt>
      <trkpt lat="42.93708" lon="0.67015">
        <ele>1030.67</ele>
        <time>2018-03-14T13:55:57Z</time>
      </trkpt>
      <trkpt lat="42.93708" lon="0.67028">
        <ele>1030.19</ele>
        <time>2018-03-14T13:56:10Z</time>
      </trkpt>
      <trkpt lat="42.93709" lon="0.67045">
        <ele>1027.79</ele>
        <time>2018-03-14T13:56:25Z</time>
      </trkpt>
      <trkpt lat="42.93713" lon="0.6706">
        <ele>1026.34</ele>
        <time>2018-03-14T13:56:38Z</time>
      </trkpt>
      <trkpt lat="42.93716" lon="0.67071">
        <ele>1026.34</ele>
        <time>2018-03-14T13:56:52Z</time>
      </trkpt>
      <trkpt lat="42.93717" lon="0.67075">
        <ele>1027.79</ele>
        <time>2018-03-14T13:56:56Z</time>
      </trkpt>
      <trkpt lat="42.93721" lon="0.67088">
        <ele>1030.67</ele>
        <time>2018-03-14T13:57:10Z</time>
      </trkpt>
      <trkpt lat="42.93725" lon="0.67101">
        <ele>1033.07</ele>
        <time>2018-03-14T13:57:24Z</time>
      </trkpt>
      <trkpt lat="42.93728" lon="0.67109">
        <ele>1033.55</ele>
        <time>2018-03-14T13:57:38Z</time>
      </trkpt>
      <trkpt lat="42.93729" lon="0.67114">
        <ele>1034.04</ele>
        <time>2018-03-14T13:57:53Z</time>
      </trkpt>
      <trkpt lat="42.93734" lon="0.67133">
        <ele>1035.96</ele>
        <time>2018-03-14T13:58:10Z</time>
      </trkpt>
      <trkpt lat="42.93738" lon="0.67143">
        <ele>1037.4</ele>
        <time>2018-03-14T13:58:24Z</time>
      </trkpt>
      <trkpt lat="42.93743" lon="0.67153">
        <ele>1038.36</ele>
        <time>2018-03-14T13:58:36Z</time>
      </trkpt>
      <trkpt lat="42.9375" lon="0.67159">
        <ele>1040.28</ele>
        <time>2018-03-14T13:58:50Z</time>
      </trkpt>
      <trkpt lat="42.93755" lon="0.6716">
        <ele>1042.21</ele>
        <time>2018-03-14T13:58:57Z</time>
      </trkpt>
      <trkpt lat="42.93764" lon="0.67151">
        <ele>1045.57</ele>
        <time>2018-03-14T13:59:13Z</time>
      </trkpt>
      <trkpt lat="42.93772" lon="0.67145">
        <ele>1047.01</ele>
        <time>2018-03-14T13:59:26Z</time>
      </trkpt>
      <trkpt lat="42.93781" lon="0.67141">
        <ele>1047.49</ele>
        <time>2018-03-14T13:59:39Z</time>
      </trkpt>
      <trkpt lat="42.93791" lon="0.67138">
        <ele>1047.49</ele>
        <time>2018-03-14T13:59:51Z</time>
      </trkpt>
      <trkpt lat="42.93799" lon="0.67139">
        <ele>1047.49</ele>
        <time>2018-03-14T14:00:05Z</time>
      </trkpt>
      <trkpt lat="42.93807" lon="0.67135">
        <ele>1047.49</ele>
        <time>2018-03-14T14:00:18Z</time>
      </trkpt>
      <trkpt lat="42.93818" lon="0.67132">
        <ele>1047.97</ele>
        <time>2018-03-14T14:00:30Z</time>
      </trkpt>
      <trkpt lat="42.93828" lon="0.67131">
        <ele>1049.42</ele>
        <time>2018-03-14T14:00:43Z</time>
      </trkpt>
      <trkpt lat="42.9384" lon="0.6713">
        <ele>1049.42</ele>
        <time>2018-03-14T14:00:55Z</time>
      </trkpt>
      <trkpt lat="42.93851" lon="0.67127">
        <ele>1050.38</ele>
        <time>2018-03-14T14:01:06Z</time>
      </trkpt>
      <trkpt lat="42.93865" lon="0.67122">
        <ele>1051.82</ele>
        <time>2018-03-14T14:01:21Z</time>
      </trkpt>
      <trkpt lat="42.93876" lon="0.67115">
        <ele>1050.38</ele>
        <time>2018-03-14T14:01:35Z</time>
      </trkpt>
      <trkpt lat="42.93881" lon="0.67114">
        <ele>1049.9</ele>
        <time>2018-03-14T14:01:39Z</time>
      </trkpt>
      <trkpt lat="42.93894" lon="0.6711">
        <ele>1048.94</ele>
        <time>2018-03-14T14:01:54Z</time>
      </trkpt>
      <trkpt lat="42.939" lon="0.67109">
        <ele>1047.49</ele>
        <time>2018-03-14T14:02:08Z</time>
      </trkpt>
      <trkpt lat="42.9391" lon="0.67107">
        <ele>1046.05</ele>
        <time>2018-03-14T14:02:24Z</time>
      </trkpt>
      <trkpt lat="42.93912" lon="0.67107">
        <ele>1046.05</ele>
        <time>2018-03-14T14:02:26Z</time>
      </trkpt>
      <trkpt lat="42.93923" lon="0.67103">
        <ele>1045.09</ele>
        <time>2018-03-14T14:02:42Z</time>
      </trkpt>
      <trkpt lat="42.93934" lon="0.67102">
        <ele>1043.65</ele>
        <time>2018-03-14T14:02:57Z</time>
      </trkpt>
      <trkpt lat="42.93946" lon="0.67115">
        <ele>1043.17</ele>
        <time>2018-03-14T14:03:11Z</time>
      </trkpt>
      <trkpt lat="42.93956" lon="0.6713">
        <ele>1042.69</ele>
        <time>2018-03-14T14:03:24Z</time>
      </trkpt>
      <trkpt lat="42.93961" lon="0.67136">
        <ele>1042.21</ele>
        <time>2018-03-14T14:03:30Z</time>
      </trkpt>
      <trkpt lat="42.93973" lon="0.67143">
        <ele>1042.21</ele>
        <time>2018-03-14T14:03:43Z</time>
      </trkpt>
      <trkpt lat="42.93983" lon="0.6715">
        <ele>1042.21</ele>
        <time>2018-03-14T14:03:55Z</time>
      </trkpt>
      <trkpt lat="42.93986" lon="0.67154">
        <ele>1043.65</ele>
        <time>2018-03-14T14:04:01Z</time>
      </trkpt>
      <trkpt lat="42.93995" lon="0.67161">
        <ele>1045.09</ele>
        <time>2018-03-14T14:04:13Z</time>
      </trkpt>
      <trkpt lat="42.94" lon="0.67169">
        <ele>1047.01</ele>
        <time>2018-03-14T14:04:25Z</time>
      </trkpt>
      <trkpt lat="42.94003" lon="0.67177">
        <ele>1048.94</ele>
        <time>2018-03-14T14:04:36Z</time>
      </trkpt>
      <trkpt lat="42.94015" lon="0.67188">
        <ele>1048.94</ele>
        <time>2018-03-14T14:04:50Z</time>
      </trkpt>
      <trkpt lat="42.94024" lon="0.67201">
        <ele>1050.38</ele>
        <time>2018-03-14T14:05:05Z</time>
      </trkpt>
      <trkpt lat="42.94026" lon="0.67219">
        <ele>1050.38</ele>
        <time>2018-03-14T14:05:19Z</time>
      </trkpt>
      <trkpt lat="42.94027" lon="0.67229">
        <ele>1050.86</ele>
        <time>2018-03-14T14:05:29Z</time>
      </trkpt>
      <trkpt lat="42.9403" lon="0.67246">
        <ele>1051.82</ele>
        <time>2018-03-14T14:05:42Z</time>
      </trkpt>
      <trkpt lat="42.94031" lon="0.6726">
        <ele>1051.82</ele>
        <time>2018-03-14T14:05:54Z</time>
      </trkpt>
      <trkpt lat="42.94032" lon="0.67267">
        <ele>1051.82</ele>
        <time>2018-03-14T14:05:59Z</time>
      </trkpt>
      <trkpt lat="42.94035" lon="0.6728">
        <ele>1050.38</ele>
        <time>2018-03-14T14:06:09Z</time>
      </trkpt>
      <trkpt lat="42.94041" lon="0.6729">
        <ele>1049.9</ele>
        <time>2018-03-14T14:06:22Z</time>
      </trkpt>
      <trkpt lat="42.94039" lon="0.67301">
        <ele>1049.9</ele>
        <time>2018-03-14T14:06:35Z</time>
      </trkpt>
      <trkpt lat="42.94038" lon="0.67306">
        <ele>1051.34</ele>
        <time>2018-03-14T14:06:40Z</time>
      </trkpt>
      <trkpt lat="42.94035" lon="0.67316">
        <ele>1051.82</ele>
        <time>2018-03-14T14:06:53Z</time>
      </trkpt>
      <trkpt lat="42.94025" lon="0.6733">
        <ele>1050.38</ele>
        <time>2018-03-14T14:07:07Z</time>
      </trkpt>
      <trkpt lat="42.94018" lon="0.67339">
        <ele>1047.97</ele>
        <time>2018-03-14T14:07:20Z</time>
      </trkpt>
      <trkpt lat="42.94012" lon="0.67357">
        <ele>1047.01</ele>
        <time>2018-03-14T14:07:33Z</time>
      </trkpt>
      <trkpt lat="42.9401" lon="0.67368">
        <ele>1046.05</ele>
        <time>2018-03-14T14:07:46Z</time>
      </trkpt>
      <trkpt lat="42.94012" lon="0.67377">
        <ele>1045.09</ele>
        <time>2018-03-14T14:08:01Z</time>
      </trkpt>
      <trkpt lat="42.94013" lon="0.67387">
        <ele>1044.13</ele>
        <time>2018-03-14T14:08:13Z</time>
      </trkpt>
      <trkpt lat="42.94012" lon="0.67394">
        <ele>1042.69</ele>
        <time>2018-03-14T14:08:23Z</time>
      </trkpt>
      <trkpt lat="42.94015" lon="0.67408">
        <ele>1041.73</ele>
        <time>2018-03-14T14:08:34Z</time>
      </trkpt>
      <trkpt lat="42.9402" lon="0.67421">
        <ele>1041.25</ele>
        <time>2018-03-14T14:08:43Z</time>
      </trkpt>
      <trkpt lat="42.94022" lon="0.6744">
        <ele>1041.73</ele>
        <time>2018-03-14T14:08:55Z</time>
      </trkpt>
      <trkpt lat="42.94021" lon="0.67443">
        <ele>1041.73</ele>
        <time>2018-03-14T14:08:57Z</time>
      </trkpt>
      <trkpt lat="42.94027" lon="0.67461">
        <ele>1041.25</ele>
        <time>2018-03-14T14:09:11Z</time>
      </trkpt>
      <trkpt lat="42.94027" lon="0.67476">
        <ele>1040.28</ele>
        <time>2018-03-14T14:09:23Z</time>
      </trkpt>
      <trkpt lat="42.94031" lon="0.67493">
        <ele>1039.8</ele>
        <time>2018-03-14T14:09:36Z</time>
      </trkpt>
      <trkpt lat="42.9403" lon="0.6751">
        <ele>1037.88</ele>
        <time>2018-03-14T14:09:49Z</time>
      </trkpt>
      <trkpt lat="42.94029" lon="0.67523">
        <ele>1037.4</ele>
        <time>2018-03-14T14:09:58Z</time>
      </trkpt>
      <trkpt lat="42.94024" lon="0.67542">
        <ele>1035.48</ele>
        <time>2018-03-14T14:10:14Z</time>
      </trkpt>
      <trkpt lat="42.9402" lon="0.67551">
        <ele>1035.48</ele>
        <time>2018-03-14T14:10:21Z</time>
      </trkpt>
      <trkpt lat="42.94004" lon="0.67572">
        <ele>1035.48</ele>
        <time>2018-03-14T14:10:37Z</time>
      </trkpt>
      <trkpt lat="42.93995" lon="0.67589">
        <ele>1035.48</ele>
        <time>2018-03-14T14:10:51Z</time>
      </trkpt>
      <trkpt lat="42.93984" lon="0.676">
        <ele>1035.96</ele>
        <time>2018-03-14T14:11:04Z</time>
      </trkpt>
      <trkpt lat="42.93976" lon="0.67612">
        <ele>1038.36</ele>
        <time>2018-03-14T14:11:17Z</time>
      </trkpt>
      <trkpt lat="42.9397" lon="0.67617">
        <ele>1038.84</ele>
        <time>2018-03-14T14:11:30Z</time>
      </trkpt>
      <trkpt lat="42.93968" lon="0.67616">
        <ele>1039.32</ele>
        <time>2018-03-14T14:11:48Z</time>
      </trkpt>
      <trkpt lat="42.93964" lon="0.67624">
        <ele>1037.88</ele>
        <time>2018-03-14T14:11:58Z</time>
      </trkpt>
      <trkpt lat="42.93963" lon="0.6763">
        <ele>1036.44</ele>
        <time>2018-03-14T14:12:08Z</time>
      </trkpt>
      <trkpt lat="42.93963" lon="0.6764">
        <ele>1035</ele>
        <time>2018-03-14T14:12:21Z</time>
      </trkpt>
      <trkpt lat="42.93961" lon="0.67656">
        <ele>1032.11</ele>
        <time>2018-03-14T14:12:36Z</time>
      </trkpt>
      <trkpt lat="42.93952" lon="0.67666">
        <ele>1030.19</ele>
        <time>2018-03-14T14:12:48Z</time>
      </trkpt>
      <trkpt lat="42.93947" lon="0.67674">
        <ele>1028.75</ele>
        <time>2018-03-14T14:13:02Z</time>
      </trkpt>
      <trkpt lat="42.93943" lon="0.67682">
        <ele>1026.34</ele>
        <time>2018-03-14T14:13:17Z</time>
      </trkpt>
      <trkpt lat="42.93943" lon="0.67695">
        <ele>1023.46</ele>
        <time>2018-03-14T14:13:32Z</time>
      </trkpt>
      <trkpt lat="42.93939" lon="0.67706">
        <ele>1021.54</ele>
        <time>2018-03-14T14:13:45Z</time>
      </trkpt>
      <trkpt lat="42.93933" lon="0.6772">
        <ele>1020.1</ele>
        <time>2018-03-14T14:13:58Z</time>
      </trkpt>
      <trkpt lat="42.93925" lon="0.67735">
        <ele>1018.17</ele>
        <time>2018-03-14T14:14:13Z</time>
      </trkpt>
      <trkpt lat="42.93922" lon="0.67753">
        <ele>1015.77</ele>
        <time>2018-03-14T14:14:27Z</time>
      </trkpt>
      <trkpt lat="42.93924" lon="0.67758">
        <ele>1014.81</ele>
        <time>2018-03-14T14:14:33Z</time>
      </trkpt>
      <trkpt lat="42.93927" lon="0.67777">
        <ele>1013.37</ele>
        <time>2018-03-14T14:14:46Z</time>
      </trkpt>
      <trkpt lat="42.93928" lon="0.67789">
        <ele>1012.41</ele>
        <time>2018-03-14T14:14:59Z</time>
      </trkpt>
      <trkpt lat="42.93926" lon="0.67795">
        <ele>1011.93</ele>
        <time>2018-03-14T14:15:12Z</time>
      </trkpt>
      <trkpt lat="42.93926" lon="0.67811">
        <ele>1010</ele>
        <time>2018-03-14T14:15:26Z</time>
      </trkpt>
      <trkpt lat="42.93933" lon="0.67821">
        <ele>1008.08</ele>
        <time>2018-03-14T14:15:36Z</time>
      </trkpt>
      <trkpt lat="42.93937" lon="0.67825">
        <ele>1007.12</ele>
        <time>2018-03-14T14:15:50Z</time>
      </trkpt>
      <trkpt lat="42.93945" lon="0.67827">
        <ele>1006.64</ele>
        <time>2018-03-14T14:16:05Z</time>
      </trkpt>
      <trkpt lat="42.93951" lon="0.67826">
        <ele>1006.64</ele>
        <time>2018-03-14T14:16:21Z</time>
      </trkpt>
      <trkpt lat="42.93949" lon="0.6783">
        <ele>1006.16</ele>
        <time>2018-03-14T14:16:24Z</time>
      </trkpt>
      <trkpt lat="42.9394" lon="0.67846">
        <ele>1005.68</ele>
        <time>2018-03-14T14:16:36Z</time>
      </trkpt>
      <trkpt lat="42.9394" lon="0.67858">
        <ele>1005.2</ele>
        <time>2018-03-14T14:16:51Z</time>
      </trkpt>
      <trkpt lat="42.93937" lon="0.67863">
        <ele>1005.2</ele>
        <time>2018-03-14T14:17:04Z</time>
      </trkpt>
      <trkpt lat="42.93937" lon="0.67855">
        <ele>1005.2</ele>
        <time>2018-03-14T14:17:22Z</time>
      </trkpt>
      <trkpt lat="42.93936" lon="0.67859">
        <ele>1004.72</ele>
        <time>2018-03-14T14:17:40Z</time>
      </trkpt>
      <trkpt lat="42.9394" lon="0.67865">
        <ele>1004.72</ele>
        <time>2018-03-14T14:18:09Z</time>
      </trkpt>
      <trkpt lat="42.93922" lon="0.67872">
        <ele>1002.79</ele>
        <time>2018-03-14T14:18:21Z</time>
      </trkpt>
      <trkpt lat="42.93913" lon="0.67871">
        <ele>1001.83</ele>
        <time>2018-03-14T14:18:31Z</time>
      </trkpt>
      <trkpt lat="42.93902" lon="0.67867">
        <ele>1001.35</ele>
        <time>2018-03-14T14:18:44Z</time>
      </trkpt>
      <trkpt lat="42.93899" lon="0.6786">
        <ele>1001.35</ele>
        <time>2018-03-14T14:19:01Z</time>
      </trkpt>
      <trkpt lat="42.93899" lon="0.67861">
        <ele>1002.79</ele>
        <time>2018-03-14T14:19:03Z</time>
      </trkpt>
      <trkpt lat="42.93895" lon="0.6786">
        <ele>1003.75</ele>
        <time>2018-03-14T14:19:17Z</time>
      </trkpt>
      <trkpt lat="42.93896" lon="0.67857">
        <ele>1004.72</ele>
        <time>2018-03-14T14:19:31Z</time>
      </trkpt>
      <trkpt lat="42.93912" lon="0.67855">
        <ele>1004.72</ele>
        <time>2018-03-14T14:19:46Z</time>
      </trkpt>
      <trkpt lat="42.93928" lon="0.67857">
        <ele>1004.72</ele>
        <time>2018-03-14T14:20:00Z</time>
      </trkpt>
      <trkpt lat="42.93934" lon="0.67861">
        <ele>1004.72</ele>
        <time>2018-03-14T14:20:04Z</time>
      </trkpt>
      <trkpt lat="42.93938" lon="0.6788">
        <ele>1004.72</ele>
        <time>2018-03-14T14:20:18Z</time>
      </trkpt>
      <trkpt lat="42.93932" lon="0.67888">
        <ele>1003.27</ele>
        <time>2018-03-14T14:20:22Z</time>
      </trkpt>
      <trkpt lat="42.93915" lon="0.679">
        <ele>999.91</ele>
        <time>2018-03-14T14:20:35Z</time>
      </trkpt>
      <trkpt lat="42.93898" lon="0.67915">
        <ele>996.54</ele>
        <time>2018-03-14T14:20:50Z</time>
      </trkpt>
      <trkpt lat="42.93886" lon="0.67921">
        <ele>994.62</ele>
        <time>2018-03-14T14:21:04Z</time>
      </trkpt>
      <trkpt lat="42.93879" lon="0.67919">
        <ele>993.66</ele>
        <time>2018-03-14T14:21:17Z</time>
      </trkpt>
      <trkpt lat="42.93875" lon="0.6793">
        <ele>991.74</ele>
        <time>2018-03-14T14:21:30Z</time>
      </trkpt>
      <trkpt lat="42.93871" lon="0.67935">
        <ele>989.81</ele>
        <time>2018-03-14T14:21:39Z</time>
      </trkpt>
      <trkpt lat="42.93868" lon="0.67931">
        <ele>988.37</ele>
        <time>2018-03-14T14:21:50Z</time>
      </trkpt>
      <trkpt lat="42.93863" lon="0.67933">
        <ele>986.93</ele>
        <time>2018-03-14T14:22:03Z</time>
      </trkpt>
      <trkpt lat="42.93857" lon="0.67934">
        <ele>985.01</ele>
        <time>2018-03-14T14:22:17Z</time>
      </trkpt>
      <trkpt lat="42.93851" lon="0.67935">
        <ele>981.64</ele>
        <time>2018-03-14T14:22:27Z</time>
      </trkpt>
      <trkpt lat="42.93843" lon="0.6794">
        <ele>978.28</ele>
        <time>2018-03-14T14:22:40Z</time>
      </trkpt>
      <trkpt lat="42.93831" lon="0.67943">
        <ele>974.91</ele>
        <time>2018-03-14T14:22:56Z</time>
      </trkpt>
      <trkpt lat="42.93823" lon="0.67947">
        <ele>971.55</ele>
        <time>2018-03-14T14:23:06Z</time>
      </trkpt>
      <trkpt lat="42.93816" lon="0.67954">
        <ele>968.67</ele>
        <time>2018-03-14T14:23:14Z</time>
      </trkpt>
      <trkpt lat="42.93813" lon="0.67957">
        <ele>966.26</ele>
        <time>2018-03-14T14:23:27Z</time>
      </trkpt>
      <trkpt lat="42.9381" lon="0.6796">
        <ele>962.9</ele>
        <time>2018-03-14T14:23:36Z</time>
      </trkpt>
      <trkpt lat="42.93805" lon="0.67971">
        <ele>960.98</ele>
        <time>2018-03-14T14:23:47Z</time>
      </trkpt>
      <trkpt lat="42.93803" lon="0.67973">
        <ele>960.98</ele>
        <time>2018-03-14T14:23:49Z</time>
      </trkpt>
      <trkpt lat="42.93796" lon="0.67989">
        <ele>957.61</ele>
        <time>2018-03-14T14:24:00Z</time>
      </trkpt>
      <trkpt lat="42.93783" lon="0.67998">
        <ele>955.69</ele>
        <time>2018-03-14T14:24:14Z</time>
      </trkpt>
      <trkpt lat="42.93777" lon="0.68">
        <ele>953.28</ele>
        <time>2018-03-14T14:24:28Z</time>
      </trkpt>
      <trkpt lat="42.93772" lon="0.68008">
        <ele>951.36</ele>
        <time>2018-03-14T14:24:39Z</time>
      </trkpt>
      <trkpt lat="42.93771" lon="0.68015">
        <ele>949.92</ele>
        <time>2018-03-14T14:24:52Z</time>
      </trkpt>
      <trkpt lat="42.93764" lon="0.68028">
        <ele>947.04</ele>
        <time>2018-03-14T14:25:07Z</time>
      </trkpt>
      <trkpt lat="42.93761" lon="0.68045">
        <ele>945.11</ele>
        <time>2018-03-14T14:25:19Z</time>
      </trkpt>
      <trkpt lat="42.93756" lon="0.68059">
        <ele>943.67</ele>
        <time>2018-03-14T14:25:28Z</time>
      </trkpt>
      <trkpt lat="42.93754" lon="0.68072">
        <ele>942.23</ele>
        <time>2018-03-14T14:25:37Z</time>
      </trkpt>
      <trkpt lat="42.93746" lon="0.68093">
        <ele>939.83</ele>
        <time>2018-03-14T14:25:52Z</time>
      </trkpt>
      <trkpt lat="42.93746" lon="0.68094">
        <ele>939.83</ele>
        <time>2018-03-14T14:25:53Z</time>
      </trkpt>
      <trkpt lat="42.93745" lon="0.68103">
        <ele>939.35</ele>
        <time>2018-03-14T14:25:58Z</time>
      </trkpt>
      <trkpt lat="42.93744" lon="0.68106">
        <ele>938.86</ele>
        <time>2018-03-14T14:26:00Z</time>
      </trkpt>
      <trkpt lat="42.9374" lon="0.68125">
        <ele>935.98</ele>
        <time>2018-03-14T14:26:12Z</time>
      </trkpt>
      <trkpt lat="42.93731" lon="0.68145">
        <ele>934.06</ele>
        <time>2018-03-14T14:26:26Z</time>
      </trkpt>
      <trkpt lat="42.93726" lon="0.68165">
        <ele>931.65</ele>
        <time>2018-03-14T14:26:40Z</time>
      </trkpt>
      <trkpt lat="42.93728" lon="0.68174">
        <ele>931.17</ele>
        <time>2018-03-14T14:26:47Z</time>
      </trkpt>
      <trkpt lat="42.93726" lon="0.68182">
        <ele>931.17</ele>
        <time>2018-03-14T14:26:53Z</time>
      </trkpt>
      <trkpt lat="42.93725" lon="0.68209">
        <ele>929.73</ele>
        <time>2018-03-14T14:27:10Z</time>
      </trkpt>
      <trkpt lat="42.93722" lon="0.68224">
        <ele>928.29</ele>
        <time>2018-03-14T14:27:19Z</time>
      </trkpt>
      <trkpt lat="42.9372" lon="0.68235">
        <ele>927.81</ele>
        <time>2018-03-14T14:27:24Z</time>
      </trkpt>
      <trkpt lat="42.93715" lon="0.68254">
        <ele>924.45</ele>
        <time>2018-03-14T14:27:39Z</time>
      </trkpt>
      <trkpt lat="42.93712" lon="0.68264">
        <ele>923.96</ele>
        <time>2018-03-14T14:27:47Z</time>
      </trkpt>
      <trkpt lat="42.93712" lon="0.68267">
        <ele>923.96</ele>
        <time>2018-03-14T14:27:49Z</time>
      </trkpt>
      <trkpt lat="42.9371" lon="0.68287">
        <ele>923</ele>
        <time>2018-03-14T14:28:01Z</time>
      </trkpt>
      <trkpt lat="42.9371" lon="0.68306">
        <ele>920.12</ele>
        <time>2018-03-14T14:28:15Z</time>
      </trkpt>
      <trkpt lat="42.93708" lon="0.68321">
        <ele>918.68</ele>
        <time>2018-03-14T14:28:30Z</time>
      </trkpt>
      <trkpt lat="42.93703" lon="0.68335">
        <ele>915.79</ele>
        <time>2018-03-14T14:28:43Z</time>
      </trkpt>
      <trkpt lat="42.93699" lon="0.68349">
        <ele>912.43</ele>
        <time>2018-03-14T14:28:56Z</time>
      </trkpt>
      <trkpt lat="42.93694" lon="0.68368">
        <ele>910.03</ele>
        <time>2018-03-14T14:29:10Z</time>
      </trkpt>
      <trkpt lat="42.93688" lon="0.68385">
        <ele>908.1</ele>
        <time>2018-03-14T14:29:23Z</time>
      </trkpt>
      <trkpt lat="42.93684" lon="0.68401">
        <ele>906.18</ele>
        <time>2018-03-14T14:29:37Z</time>
      </trkpt>
      <trkpt lat="42.93677" lon="0.68415">
        <ele>903.3</ele>
        <time>2018-03-14T14:29:48Z</time>
      </trkpt>
      <trkpt lat="42.93668" lon="0.6843">
        <ele>901.85</ele>
        <time>2018-03-14T14:30:02Z</time>
      </trkpt>
      <trkpt lat="42.93663" lon="0.68442">
        <ele>900.41</ele>
        <time>2018-03-14T14:30:10Z</time>
      </trkpt>
      <trkpt lat="42.93659" lon="0.68462">
        <ele>898.49</ele>
        <time>2018-03-14T14:30:24Z</time>
      </trkpt>
      <trkpt lat="42.93653" lon="0.68477">
        <ele>895.12</ele>
        <time>2018-03-14T14:30:37Z</time>
      </trkpt>
      <trkpt lat="42.93648" lon="0.68498">
        <ele>891.76</ele>
        <time>2018-03-14T14:30:51Z</time>
      </trkpt>
      <trkpt lat="42.93646" lon="0.68511">
        <ele>889.84</ele>
        <time>2018-03-14T14:31:03Z</time>
      </trkpt>
      <trkpt lat="42.93641" lon="0.68522">
        <ele>886.47</ele>
        <time>2018-03-14T14:31:18Z</time>
      </trkpt>
      <trkpt lat="42.93637" lon="0.68533">
        <ele>883.59</ele>
        <time>2018-03-14T14:31:31Z</time>
      </trkpt>
      <trkpt lat="42.93633" lon="0.68541">
        <ele>882.15</ele>
        <time>2018-03-14T14:31:43Z</time>
      </trkpt>
      <trkpt lat="42.93627" lon="0.68557">
        <ele>879.26</ele>
        <time>2018-03-14T14:31:57Z</time>
      </trkpt>
      <trkpt lat="42.93627" lon="0.68575">
        <ele>875.9</ele>
        <time>2018-03-14T14:32:13Z</time>
      </trkpt>
      <trkpt lat="42.93625" lon="0.68591">
        <ele>873.01</ele>
        <time>2018-03-14T14:32:26Z</time>
      </trkpt>
      <trkpt lat="42.93623" lon="0.68605">
        <ele>869.65</ele>
        <time>2018-03-14T14:32:39Z</time>
      </trkpt>
      <trkpt lat="42.93623" lon="0.68611">
        <ele>868.69</ele>
        <time>2018-03-14T14:32:44Z</time>
      </trkpt>
      <trkpt lat="42.93614" lon="0.68626">
        <ele>866.29</ele>
        <time>2018-03-14T14:32:59Z</time>
      </trkpt>
      <trkpt lat="42.93614" lon="0.68632">
        <ele>863.88</ele>
        <time>2018-03-14T14:33:10Z</time>
      </trkpt>
      <trkpt lat="42.93615" lon="0.68641">
        <ele>862.44</ele>
        <time>2018-03-14T14:33:19Z</time>
      </trkpt>
      <trkpt lat="42.93616" lon="0.68654">
        <ele>860.52</ele>
        <time>2018-03-14T14:33:33Z</time>
      </trkpt>
      <trkpt lat="42.93616" lon="0.68657">
        <ele>859.56</ele>
        <time>2018-03-14T14:33:50Z</time>
      </trkpt>
      <trkpt lat="42.93616" lon="0.68654">
        <ele>860.52</ele>
        <time>2018-03-14T14:34:14Z</time>
      </trkpt>
      <trkpt lat="42.93616" lon="0.68652">
        <ele>859.08</ele>
        <time>2018-03-14T14:34:21Z</time>
      </trkpt>
      <trkpt lat="42.93615" lon="0.68639">
        <ele>862.44</ele>
        <time>2018-03-14T14:34:34Z</time>
      </trkpt>
      <trkpt lat="42.93618" lon="0.68632">
        <ele>864.84</ele>
        <time>2018-03-14T14:34:46Z</time>
      </trkpt>
      <trkpt lat="42.93619" lon="0.68633">
        <ele>866.77</ele>
        <time>2018-03-14T14:34:57Z</time>
      </trkpt>
      <trkpt lat="42.9362" lon="0.68638">
        <ele>866.77</ele>
        <time>2018-03-14T14:35:19Z</time>
      </trkpt>
      <trkpt lat="42.9362" lon="0.68648">
        <ele>866.77</ele>
        <time>2018-03-14T14:35:26Z</time>
      </trkpt>
      <trkpt lat="42.93621" lon="0.68654">
        <ele>866.77</ele>
        <time>2018-03-14T14:35:31Z</time>
      </trkpt>
      <trkpt lat="42.93621" lon="0.68657">
        <ele>866.77</ele>
        <time>2018-03-14T14:35:33Z</time>
      </trkpt>
      <trkpt lat="42.93622" lon="0.68669">
        <ele>864.36</ele>
        <time>2018-03-14T14:35:40Z</time>
      </trkpt>
      <trkpt lat="42.93621" lon="0.68688">
        <ele>862.44</ele>
        <time>2018-03-14T14:35:53Z</time>
      </trkpt>
      <trkpt lat="42.93616" lon="0.68701">
        <ele>861</ele>
        <time>2018-03-14T14:36:04Z</time>
      </trkpt>
      <trkpt lat="42.93615" lon="0.68702">
        <ele>861</ele>
        <time>2018-03-14T14:36:05Z</time>
      </trkpt>
      <trkpt lat="42.93619" lon="0.68718">
        <ele>859.08</ele>
        <time>2018-03-14T14:36:17Z</time>
      </trkpt>
      <trkpt lat="42.93618" lon="0.68727">
        <ele>858.59</ele>
        <time>2018-03-14T14:36:28Z</time>
      </trkpt>
      <trkpt lat="42.93619" lon="0.68742">
        <ele>858.11</ele>
        <time>2018-03-14T14:36:39Z</time>
      </trkpt>
      <trkpt lat="42.93621" lon="0.68764">
        <ele>855.71</ele>
        <time>2018-03-14T14:36:51Z</time>
      </trkpt>
      <trkpt lat="42.93623" lon="0.68775">
        <ele>854.27</ele>
        <time>2018-03-14T14:36:58Z</time>
      </trkpt>
      <trkpt lat="42.93626" lon="0.68796">
        <ele>852.35</ele>
        <time>2018-03-14T14:37:11Z</time>
      </trkpt>
      <trkpt lat="42.93626" lon="0.68799">
        <ele>852.35</ele>
        <time>2018-03-14T14:37:13Z</time>
      </trkpt>
      <trkpt lat="42.93623" lon="0.68801">
        <ele>851.87</ele>
        <time>2018-03-14T14:37:20Z</time>
      </trkpt>
      <trkpt lat="42.93626" lon="0.68805">
        <ele>851.87</ele>
        <time>2018-03-14T14:37:31Z</time>
      </trkpt>
      <trkpt lat="42.93628" lon="0.68809">
        <ele>851.87</ele>
        <time>2018-03-14T14:37:36Z</time>
      </trkpt>
      <trkpt lat="42.9363" lon="0.68817">
        <ele>853.31</ele>
        <time>2018-03-14T14:37:42Z</time>
      </trkpt>
      <trkpt lat="42.93634" lon="0.68828">
        <ele>853.79</ele>
        <time>2018-03-14T14:37:51Z</time>
      </trkpt>
      <trkpt lat="42.93634" lon="0.68832">
        <ele>853.79</ele>
        <time>2018-03-14T14:37:54Z</time>
      </trkpt>
      <trkpt lat="42.93638" lon="0.68845">
        <ele>855.23</ele>
        <time>2018-03-14T14:38:05Z</time>
      </trkpt>
      <trkpt lat="42.93638" lon="0.68846">
        <ele>855.23</ele>
        <time>2018-03-14T14:38:06Z</time>
      </trkpt>
      <trkpt lat="42.93643" lon="0.68853">
        <ele>856.19</ele>
        <time>2018-03-14T14:38:13Z</time>
      </trkpt>
      <trkpt lat="42.93646" lon="0.68861">
        <ele>856.67</ele>
        <time>2018-03-14T14:38:19Z</time>
      </trkpt>
      <trkpt lat="42.93648" lon="0.68863">
        <ele>857.15</ele>
        <time>2018-03-14T14:38:21Z</time>
      </trkpt>
      <trkpt lat="42.9365" lon="0.68865">
        <ele>857.15</ele>
        <time>2018-03-14T14:38:23Z</time>
      </trkpt>
      <trkpt lat="42.93657" lon="0.68879">
        <ele>858.11</ele>
        <time>2018-03-14T14:38:36Z</time>
      </trkpt>
      <trkpt lat="42.93663" lon="0.68883">
        <ele>859.08</ele>
        <time>2018-03-14T14:38:43Z</time>
      </trkpt>
      <trkpt lat="42.93675" lon="0.68892">
        <ele>860.04</ele>
        <time>2018-03-14T14:38:55Z</time>
      </trkpt>
      <trkpt lat="42.93683" lon="0.68899">
        <ele>860.52</ele>
        <time>2018-03-14T14:39:07Z</time>
      </trkpt>
      <trkpt lat="42.93691" lon="0.68904">
        <ele>861</ele>
        <time>2018-03-14T14:39:15Z</time>
      </trkpt>
      <trkpt lat="42.93696" lon="0.68909">
        <ele>861</ele>
        <time>2018-03-14T14:39:20Z</time>
      </trkpt>
      <trkpt lat="42.93705" lon="0.68921">
        <ele>861</ele>
        <time>2018-03-14T14:39:31Z</time>
      </trkpt>
      <trkpt lat="42.93706" lon="0.68922">
        <ele>861</ele>
        <time>2018-03-14T14:39:32Z</time>
      </trkpt>
      <trkpt lat="42.93718" lon="0.68938">
        <ele>861</ele>
        <time>2018-03-14T14:39:46Z</time>
      </trkpt>
      <trkpt lat="42.93725" lon="0.68952">
        <ele>861.96</ele>
        <time>2018-03-14T14:39:57Z</time>
      </trkpt>
      <trkpt lat="42.93727" lon="0.68953">
        <ele>861.96</ele>
        <time>2018-03-14T14:39:59Z</time>
      </trkpt>
      <trkpt lat="42.93733" lon="0.6896">
        <ele>862.92</ele>
        <time>2018-03-14T14:40:11Z</time>
      </trkpt>
      <trkpt lat="42.93734" lon="0.68963">
        <ele>862.92</ele>
        <time>2018-03-14T14:40:35Z</time>
      </trkpt>
      <trkpt lat="42.93744" lon="0.6897">
        <ele>863.4</ele>
        <time>2018-03-14T14:40:51Z</time>
      </trkpt>
      <trkpt lat="42.93748" lon="0.68979">
        <ele>863.88</ele>
        <time>2018-03-14T14:41:02Z</time>
      </trkpt>
      <trkpt lat="42.93756" lon="0.68993">
        <ele>864.36</ele>
        <time>2018-03-14T14:41:14Z</time>
      </trkpt>
      <trkpt lat="42.93766" lon="0.69006">
        <ele>864.84</ele>
        <time>2018-03-14T14:41:27Z</time>
      </trkpt>
      <trkpt lat="42.9378" lon="0.69016">
        <ele>865.8</ele>
        <time>2018-03-14T14:41:42Z</time>
      </trkpt>
      <trkpt lat="42.93794" lon="0.6902">
        <ele>865.8</ele>
        <time>2018-03-14T14:41:54Z</time>
      </trkpt>
      <trkpt lat="42.93807" lon="0.69023">
        <ele>864.36</ele>
        <time>2018-03-14T14:42:06Z</time>
      </trkpt>
      <trkpt lat="42.93816" lon="0.69032">
        <ele>863.4</ele>
        <time>2018-03-14T14:42:18Z</time>
      </trkpt>
      <trkpt lat="42.93834" lon="0.6905">
        <ele>863.4</ele>
        <time>2018-03-14T14:42:31Z</time>
      </trkpt>
      <trkpt lat="42.93847" lon="0.69057">
        <ele>865.32</ele>
        <time>2018-03-14T14:42:44Z</time>
      </trkpt>
      <trkpt lat="42.93849" lon="0.69057">
        <ele>865.8</ele>
        <time>2018-03-14T14:42:47Z</time>
      </trkpt>
      <trkpt lat="42.93852" lon="0.69058">
        <ele>866.29</ele>
        <time>2018-03-14T14:42:49Z</time>
      </trkpt>
      <trkpt lat="42.93857" lon="0.69066">
        <ele>867.73</ele>
        <time>2018-03-14T14:43:02Z</time>
      </trkpt>
      <trkpt lat="42.93853" lon="0.69077">
        <ele>869.17</ele>
        <time>2018-03-14T14:43:12Z</time>
      </trkpt>
      <trkpt lat="42.93848" lon="0.69088">
        <ele>871.09</ele>
        <time>2018-03-14T14:43:24Z</time>
      </trkpt>
      <trkpt lat="42.93841" lon="0.691">
        <ele>873.5</ele>
        <time>2018-03-14T14:43:37Z</time>
      </trkpt>
      <trkpt lat="42.93838" lon="0.6911">
        <ele>874.94</ele>
        <time>2018-03-14T14:43:49Z</time>
      </trkpt>
      <trkpt lat="42.93835" lon="0.69122">
        <ele>876.38</ele>
        <time>2018-03-14T14:44:00Z</time>
      </trkpt>
      <trkpt lat="42.93834" lon="0.69132">
        <ele>877.82</ele>
        <time>2018-03-14T14:44:14Z</time>
      </trkpt>
      <trkpt lat="42.9384" lon="0.69142">
        <ele>880.22</ele>
        <time>2018-03-14T14:44:28Z</time>
      </trkpt>
      <trkpt lat="42.93847" lon="0.69151">
        <ele>881.19</ele>
        <time>2018-03-14T14:44:41Z</time>
      </trkpt>
      <trkpt lat="42.93854" lon="0.69161">
        <ele>882.63</ele>
        <time>2018-03-14T14:44:54Z</time>
      </trkpt>
      <trkpt lat="42.93855" lon="0.69163">
        <ele>883.11</ele>
        <time>2018-03-14T14:44:56Z</time>
      </trkpt>
      <trkpt lat="42.9386" lon="0.69169">
        <ele>884.07</ele>
        <time>2018-03-14T14:45:04Z</time>
      </trkpt>
      <trkpt lat="42.93867" lon="0.69181">
        <ele>884.55</ele>
        <time>2018-03-14T14:45:16Z</time>
      </trkpt>
      <trkpt lat="42.93873" lon="0.6919">
        <ele>885.51</ele>
        <time>2018-03-14T14:45:27Z</time>
      </trkpt>
      <trkpt lat="42.93881" lon="0.69201">
        <ele>885.99</ele>
        <time>2018-03-14T14:45:39Z</time>
      </trkpt>
      <trkpt lat="42.93891" lon="0.69215">
        <ele>885.99</ele>
        <time>2018-03-14T14:45:53Z</time>
      </trkpt>
      <trkpt lat="42.939" lon="0.6923">
        <ele>886.47</ele>
        <time>2018-03-14T14:46:08Z</time>
      </trkpt>
      <trkpt lat="42.93902" lon="0.69232">
        <ele>886.95</ele>
        <time>2018-03-14T14:46:12Z</time>
      </trkpt>
      <trkpt lat="42.93904" lon="0.69236">
        <ele>886.95</ele>
        <time>2018-03-14T14:46:16Z</time>
      </trkpt>
      <trkpt lat="42.93915" lon="0.69252">
        <ele>887.43</ele>
        <time>2018-03-14T14:46:30Z</time>
      </trkpt>
      <trkpt lat="42.93924" lon="0.69266">
        <ele>887.43</ele>
        <time>2018-03-14T14:46:43Z</time>
      </trkpt>
      <trkpt lat="42.93926" lon="0.69272">
        <ele>887.91</ele>
        <time>2018-03-14T14:46:47Z</time>
      </trkpt>
      <trkpt lat="42.93929" lon="0.69283">
        <ele>887.91</ele>
        <time>2018-03-14T14:46:54Z</time>
      </trkpt>
      <trkpt lat="42.93935" lon="0.69292">
        <ele>887.91</ele>
        <time>2018-03-14T14:47:05Z</time>
      </trkpt>
      <trkpt lat="42.93941" lon="0.69303">
        <ele>887.91</ele>
        <time>2018-03-14T14:47:17Z</time>
      </trkpt>
      <trkpt lat="42.93947" lon="0.69312">
        <ele>887.91</ele>
        <time>2018-03-14T14:47:29Z</time>
      </trkpt>
      <trkpt lat="42.93949" lon="0.69315">
        <ele>887.91</ele>
        <time>2018-03-14T14:47:32Z</time>
      </trkpt>
      <trkpt lat="42.93963" lon="0.69329">
        <ele>888.88</ele>
        <time>2018-03-14T14:47:44Z</time>
      </trkpt>
      <trkpt lat="42.93962" lon="0.6934">
        <ele>888.88</ele>
        <time>2018-03-14T14:47:51Z</time>
      </trkpt>
      <trkpt lat="42.93953" lon="0.69353">
        <ele>888.88</ele>
        <time>2018-03-14T14:48:04Z</time>
      </trkpt>
      <trkpt lat="42.93949" lon="0.69359">
        <ele>889.36</ele>
        <time>2018-03-14T14:48:11Z</time>
      </trkpt>
      <trkpt lat="42.9394" lon="0.69371">
        <ele>890.32</ele>
        <time>2018-03-14T14:48:24Z</time>
      </trkpt>
      <trkpt lat="42.93936" lon="0.69365">
        <ele>890.8</ele>
        <time>2018-03-14T14:48:38Z</time>
      </trkpt>
      <trkpt lat="42.93932" lon="0.69366">
        <ele>891.28</ele>
        <time>2018-03-14T14:48:52Z</time>
      </trkpt>
      <trkpt lat="42.93925" lon="0.69367">
        <ele>891.28</ele>
        <time>2018-03-14T14:49:05Z</time>
      </trkpt>
      <trkpt lat="42.93913" lon="0.69365">
        <ele>891.28</ele>
        <time>2018-03-14T14:49:20Z</time>
      </trkpt>
      <trkpt lat="42.939" lon="0.69368">
        <ele>887.91</ele>
        <time>2018-03-14T14:49:35Z</time>
      </trkpt>
      <trkpt lat="42.93894" lon="0.69365">
        <ele>885.99</ele>
        <time>2018-03-14T14:49:43Z</time>
      </trkpt>
      <trkpt lat="42.93892" lon="0.69364">
        <ele>886.47</ele>
        <time>2018-03-14T14:49:47Z</time>
      </trkpt>
      <trkpt lat="42.93889" lon="0.69362">
        <ele>885.51</ele>
        <time>2018-03-14T14:49:50Z</time>
      </trkpt>
      <trkpt lat="42.9388" lon="0.69361">
        <ele>884.55</ele>
        <time>2018-03-14T14:50:03Z</time>
      </trkpt>
      <trkpt lat="42.93873" lon="0.6936">
        <ele>884.07</ele>
        <time>2018-03-14T14:50:11Z</time>
      </trkpt>
      <trkpt lat="42.93866" lon="0.69359">
        <ele>883.11</ele>
        <time>2018-03-14T14:50:16Z</time>
      </trkpt>
      <trkpt lat="42.93851" lon="0.69362">
        <ele>881.19</ele>
        <time>2018-03-14T14:50:31Z</time>
      </trkpt>
      <trkpt lat="42.9384" lon="0.69366">
        <ele>879.26</ele>
        <time>2018-03-14T14:50:43Z</time>
      </trkpt>
      <trkpt lat="42.93832" lon="0.69371">
        <ele>876.86</ele>
        <time>2018-03-14T14:50:55Z</time>
      </trkpt>
      <trkpt lat="42.93825" lon="0.69373">
        <ele>875.42</ele>
        <time>2018-03-14T14:51:03Z</time>
      </trkpt>
      <trkpt lat="42.93807" lon="0.69362">
        <ele>873.98</ele>
        <time>2018-03-14T14:51:18Z</time>
      </trkpt>
      <trkpt lat="42.93792" lon="0.69348">
        <ele>871.57</ele>
        <time>2018-03-14T14:51:32Z</time>
      </trkpt>
      <trkpt lat="42.93781" lon="0.69339">
        <ele>868.69</ele>
        <time>2018-03-14T14:51:46Z</time>
      </trkpt>
      <trkpt lat="42.93767" lon="0.69336">
        <ele>865.8</ele>
        <time>2018-03-14T14:52:02Z</time>
      </trkpt>
      <trkpt lat="42.93765" lon="0.69336">
        <ele>865.8</ele>
        <time>2018-03-14T14:52:04Z</time>
      </trkpt>
      <trkpt lat="42.93752" lon="0.69341">
        <ele>864.84</ele>
        <time>2018-03-14T14:52:15Z</time>
      </trkpt>
      <trkpt lat="42.9374" lon="0.69349">
        <ele>862.92</ele>
        <time>2018-03-14T14:52:25Z</time>
      </trkpt>
      <trkpt lat="42.9373" lon="0.69353">
        <ele>861</ele>
        <time>2018-03-14T14:52:37Z</time>
      </trkpt>
      <trkpt lat="42.93718" lon="0.69358">
        <ele>858.11</ele>
        <time>2018-03-14T14:52:51Z</time>
      </trkpt>
      <trkpt lat="42.93709" lon="0.69361">
        <ele>856.67</ele>
        <time>2018-03-14T14:53:04Z</time>
      </trkpt>
      <trkpt lat="42.93697" lon="0.69363">
        <ele>853.31</ele>
        <time>2018-03-14T14:53:17Z</time>
      </trkpt>
      <trkpt lat="42.93687" lon="0.69367">
        <ele>850.9</ele>
        <time>2018-03-14T14:53:29Z</time>
      </trkpt>
      <trkpt lat="42.93677" lon="0.6937">
        <ele>848.02</ele>
        <time>2018-03-14T14:53:42Z</time>
      </trkpt>
      <trkpt lat="42.93665" lon="0.69374">
        <ele>845.62</ele>
        <time>2018-03-14T14:53:55Z</time>
      </trkpt>
      <trkpt lat="42.93645" lon="0.69377">
        <ele>844.18</ele>
        <time>2018-03-14T14:54:12Z</time>
      </trkpt>
      <trkpt lat="42.93633" lon="0.69384">
        <ele>841.77</ele>
        <time>2018-03-14T14:54:27Z</time>
      </trkpt>
      <trkpt lat="42.93631" lon="0.69386">
        <ele>841.29</ele>
        <time>2018-03-14T14:54:29Z</time>
      </trkpt>
      <trkpt lat="42.93613" lon="0.69388">
        <ele>838.89</ele>
        <time>2018-03-14T14:54:45Z</time>
      </trkpt>
      <trkpt lat="42.93598" lon="0.69395">
        <ele>836.96</ele>
        <time>2018-03-14T14:55:00Z</time>
      </trkpt>
      <trkpt lat="42.93592" lon="0.69399">
        <ele>836.48</ele>
        <time>2018-03-14T14:55:06Z</time>
      </trkpt>
      <trkpt lat="42.93579" lon="0.69407">
        <ele>835.04</ele>
        <time>2018-03-14T14:55:20Z</time>
      </trkpt>
      <trkpt lat="42.93562" lon="0.69415">
        <ele>831.68</ele>
        <time>2018-03-14T14:55:36Z</time>
      </trkpt>
      <trkpt lat="42.93547" lon="0.69423">
        <ele>829.76</ele>
        <time>2018-03-14T14:55:51Z</time>
      </trkpt>
      <trkpt lat="42.9354" lon="0.69432">
        <ele>827.83</ele>
        <time>2018-03-14T14:56:05Z</time>
      </trkpt>
      <trkpt lat="42.93533" lon="0.69437">
        <ele>827.35</ele>
        <time>2018-03-14T14:56:19Z</time>
      </trkpt>
      <trkpt lat="42.93522" lon="0.69445">
        <ele>825.43</ele>
        <time>2018-03-14T14:56:35Z</time>
      </trkpt>
      <trkpt lat="42.93511" lon="0.69456">
        <ele>823.03</ele>
        <time>2018-03-14T14:56:49Z</time>
      </trkpt>
      <trkpt lat="42.93508" lon="0.69459">
        <ele>822.06</ele>
        <time>2018-03-14T14:56:53Z</time>
      </trkpt>
      <trkpt lat="42.93501" lon="0.69471">
        <ele>820.14</ele>
        <time>2018-03-14T14:57:07Z</time>
      </trkpt>
      <trkpt lat="42.93498" lon="0.6948">
        <ele>820.14</ele>
        <time>2018-03-14T14:57:22Z</time>
      </trkpt>
      <trkpt lat="42.93491" lon="0.69492">
        <ele>818.22</ele>
        <time>2018-03-14T14:57:34Z</time>
      </trkpt>
      <trkpt lat="42.93484" lon="0.69505">
        <ele>817.26</ele>
        <time>2018-03-14T14:57:47Z</time>
      </trkpt>
      <trkpt lat="42.93483" lon="0.69508">
        <ele>816.78</ele>
        <time>2018-03-14T14:57:50Z</time>
      </trkpt>
      <trkpt lat="42.93475" lon="0.69526">
        <ele>814.37</ele>
        <time>2018-03-14T14:58:05Z</time>
      </trkpt>
      <trkpt lat="42.93471" lon="0.69534">
        <ele>812.93</ele>
        <time>2018-03-14T14:58:11Z</time>
      </trkpt>
      <trkpt lat="42.93466" lon="0.69557">
        <ele>810.53</ele>
        <time>2018-03-14T14:58:27Z</time>
      </trkpt>
      <trkpt lat="42.93466" lon="0.69575">
        <ele>808.13</ele>
        <time>2018-03-14T14:58:39Z</time>
      </trkpt>
      <trkpt lat="42.93463" lon="0.69595">
        <ele>806.2</ele>
        <time>2018-03-14T14:58:54Z</time>
      </trkpt>
      <trkpt lat="42.9346" lon="0.69612">
        <ele>802.84</ele>
        <time>2018-03-14T14:59:08Z</time>
      </trkpt>
      <trkpt lat="42.9346" lon="0.69613">
        <ele>802.84</ele>
        <time>2018-03-14T14:59:09Z</time>
      </trkpt>
      <trkpt lat="42.93458" lon="0.69628">
        <ele>800.44</ele>
        <time>2018-03-14T14:59:21Z</time>
      </trkpt>
      <trkpt lat="42.93457" lon="0.69644">
        <ele>797.07</ele>
        <time>2018-03-14T14:59:34Z</time>
      </trkpt>
      <trkpt lat="42.93451" lon="0.69661">
        <ele>794.19</ele>
        <time>2018-03-14T14:59:48Z</time>
      </trkpt>
      <trkpt lat="42.93451" lon="0.69663">
        <ele>793.71</ele>
        <time>2018-03-14T14:59:50Z</time>
      </trkpt>
      <trkpt lat="42.93452" lon="0.69685">
        <ele>790.82</ele>
        <time>2018-03-14T15:00:05Z</time>
      </trkpt>
      <trkpt lat="42.93451" lon="0.69688">
        <ele>790.34</ele>
        <time>2018-03-14T15:00:08Z</time>
      </trkpt>
      <trkpt lat="42.9345" lon="0.69694">
        <ele>789.86</ele>
        <time>2018-03-14T15:00:11Z</time>
      </trkpt>
      <trkpt lat="42.93447" lon="0.69704">
        <ele>788.42</ele>
        <time>2018-03-14T15:00:19Z</time>
      </trkpt>
      <trkpt lat="42.93449" lon="0.69724">
        <ele>785.05</ele>
        <time>2018-03-14T15:00:33Z</time>
      </trkpt>
      <trkpt lat="42.93448" lon="0.69742">
        <ele>782.65</ele>
        <time>2018-03-14T15:00:47Z</time>
      </trkpt>
      <trkpt lat="42.93442" lon="0.69736">
        <ele>781.21</ele>
        <time>2018-03-14T15:00:53Z</time>
      </trkpt>
      <trkpt lat="42.93439" lon="0.69725">
        <ele>780.73</ele>
        <time>2018-03-14T15:01:01Z</time>
      </trkpt>
      <trkpt lat="42.93433" lon="0.69702">
        <ele>778.81</ele>
        <time>2018-03-14T15:01:17Z</time>
      </trkpt>
      <trkpt lat="42.93427" lon="0.69674">
        <ele>776.88</ele>
        <time>2018-03-14T15:01:33Z</time>
      </trkpt>
      <trkpt lat="42.93423" lon="0.69644">
        <ele>775.92</ele>
        <time>2018-03-14T15:01:51Z</time>
      </trkpt>
      <trkpt lat="42.93422" lon="0.69631">
        <ele>775.44</ele>
        <time>2018-03-14T15:01:59Z</time>
      </trkpt>
      <trkpt lat="42.93415" lon="0.69632">
        <ele>774.48</ele>
        <time>2018-03-14T15:02:12Z</time>
      </trkpt>
      <trkpt lat="42.93416" lon="0.69638">
        <ele>773.52</ele>
        <time>2018-03-14T15:02:23Z</time>
      </trkpt>
      <trkpt lat="42.93416" lon="0.69657">
        <ele>770.63</ele>
        <time>2018-03-14T15:02:39Z</time>
      </trkpt>
      <trkpt lat="42.93417" lon="0.69671">
        <ele>768.71</ele>
        <time>2018-03-14T15:02:50Z</time>
      </trkpt>
      <trkpt lat="42.93416" lon="0.69676">
        <ele>768.23</ele>
        <time>2018-03-14T15:02:53Z</time>
      </trkpt>
      <trkpt lat="42.93415" lon="0.69699">
        <ele>766.31</ele>
        <time>2018-03-14T15:03:07Z</time>
      </trkpt>
      <trkpt lat="42.93416" lon="0.69701">
        <ele>766.31</ele>
        <time>2018-03-14T15:03:08Z</time>
      </trkpt>
      <trkpt lat="42.93419" lon="0.69722">
        <ele>763.9</ele>
        <time>2018-03-14T15:03:20Z</time>
      </trkpt>
      <trkpt lat="42.93421" lon="0.69745">
        <ele>761.98</ele>
        <time>2018-03-14T15:03:35Z</time>
      </trkpt>
      <trkpt lat="42.93422" lon="0.69758">
        <ele>761.5</ele>
        <time>2018-03-14T15:03:43Z</time>
      </trkpt>
      <trkpt lat="42.93418" lon="0.69777">
        <ele>759.1</ele>
        <time>2018-03-14T15:03:56Z</time>
      </trkpt>
      <trkpt lat="42.93424" lon="0.69795">
        <ele>757.18</ele>
        <time>2018-03-14T15:04:10Z</time>
      </trkpt>
      <trkpt lat="42.9343" lon="0.69805">
        <ele>755.25</ele>
        <time>2018-03-14T15:04:17Z</time>
      </trkpt>
      <trkpt lat="42.93432" lon="0.69812">
        <ele>755.25</ele>
        <time>2018-03-14T15:04:21Z</time>
      </trkpt>
      <trkpt lat="42.93435" lon="0.69828">
        <ele>752.85</ele>
        <time>2018-03-14T15:04:30Z</time>
      </trkpt>
      <trkpt lat="42.93437" lon="0.69833">
        <ele>751.89</ele>
        <time>2018-03-14T15:04:34Z</time>
      </trkpt>
      <trkpt lat="42.93438" lon="0.69849">
        <ele>749</ele>
        <time>2018-03-14T15:04:46Z</time>
      </trkpt>
      <trkpt lat="42.9344" lon="0.69861">
        <ele>748.52</ele>
        <time>2018-03-14T15:04:55Z</time>
      </trkpt>
      <trkpt lat="42.93441" lon="0.69869">
        <ele>748.04</ele>
        <time>2018-03-14T15:05:01Z</time>
      </trkpt>
      <trkpt lat="42.93442" lon="0.69871">
        <ele>748.52</ele>
        <time>2018-03-14T15:05:03Z</time>
      </trkpt>
      <trkpt lat="42.93448" lon="0.69893">
        <ele>749.97</ele>
        <time>2018-03-14T15:05:18Z</time>
      </trkpt>
      <trkpt lat="42.9345" lon="0.69895">
        <ele>749.97</ele>
        <time>2018-03-14T15:05:20Z</time>
      </trkpt>
      <trkpt lat="42.93453" lon="0.69902">
        <ele>750.93</ele>
        <time>2018-03-14T15:05:26Z</time>
      </trkpt>
      <trkpt lat="42.93451" lon="0.69921">
        <ele>751.41</ele>
        <time>2018-03-14T15:05:39Z</time>
      </trkpt>
      <trkpt lat="42.93453" lon="0.69945">
        <ele>752.37</ele>
        <time>2018-03-14T15:05:54Z</time>
      </trkpt>
      <trkpt lat="42.93455" lon="0.69964">
        <ele>752.85</ele>
        <time>2018-03-14T15:06:08Z</time>
      </trkpt>
      <trkpt lat="42.93457" lon="0.6998">
        <ele>754.77</ele>
        <time>2018-03-14T15:06:20Z</time>
      </trkpt>
      <trkpt lat="42.93454" lon="0.69991">
        <ele>756.21</ele>
        <time>2018-03-14T15:06:30Z</time>
      </trkpt>
      <trkpt lat="42.93452" lon="0.70007">
        <ele>759.58</ele>
        <time>2018-03-14T15:06:43Z</time>
      </trkpt>
      <trkpt lat="42.93449" lon="0.70015">
        <ele>759.58</ele>
        <time>2018-03-14T15:06:57Z</time>
      </trkpt>
      <trkpt lat="42.93448" lon="0.70018">
        <ele>759.58</ele>
        <time>2018-03-14T15:07:05Z</time>
      </trkpt>
      <trkpt lat="42.93456" lon="0.70035">
        <ele>759.58</ele>
        <time>2018-03-14T15:07:20Z</time>
      </trkpt>
      <trkpt lat="42.93464" lon="0.70043">
        <ele>759.58</ele>
        <time>2018-03-14T15:07:34Z</time>
      </trkpt>
      <trkpt lat="42.93476" lon="0.70052">
        <ele>759.58</ele>
        <time>2018-03-14T15:07:49Z</time>
      </trkpt>
      <trkpt lat="42.93477" lon="0.70055">
        <ele>757.66</ele>
        <time>2018-03-14T15:07:52Z</time>
      </trkpt>
      <trkpt lat="42.93483" lon="0.70062">
        <ele>755.25</ele>
        <time>2018-03-14T15:08:05Z</time>
      </trkpt>
      <trkpt lat="42.9348" lon="0.70058">
        <ele>754.77</ele>
        <time>2018-03-14T15:08:23Z</time>
      </trkpt>
      <trkpt lat="42.9349" lon="0.70056">
        <ele>752.37</ele>
        <time>2018-03-14T15:08:37Z</time>
      </trkpt>
      <trkpt lat="42.93504" lon="0.70052">
        <ele>749.49</ele>
        <time>2018-03-14T15:08:51Z</time>
      </trkpt>
      <trkpt lat="42.93511" lon="0.70056">
        <ele>748.04</ele>
        <time>2018-03-14T15:09:06Z</time>
      </trkpt>
      <trkpt lat="42.93525" lon="0.70064">
        <ele>747.56</ele>
        <time>2018-03-14T15:09:20Z</time>
      </trkpt>
      <trkpt lat="42.93535" lon="0.70072">
        <ele>746.6</ele>
        <time>2018-03-14T15:09:31Z</time>
      </trkpt>
      <trkpt lat="42.93547" lon="0.70081">
        <ele>746.6</ele>
        <time>2018-03-14T15:09:43Z</time>
      </trkpt>
      <trkpt lat="42.93556" lon="0.7009">
        <ele>746.12</ele>
        <time>2018-03-14T15:09:57Z</time>
      </trkpt>
      <trkpt lat="42.9357" lon="0.70097">
        <ele>745.16</ele>
        <time>2018-03-14T15:10:11Z</time>
      </trkpt>
      <trkpt lat="42.93577" lon="0.70096">
        <ele>745.16</ele>
        <time>2018-03-14T15:10:17Z</time>
      </trkpt>
      <trkpt lat="42.9359" lon="0.70098">
        <ele>745.16</ele>
        <time>2018-03-14T15:10:29Z</time>
      </trkpt>
      <trkpt lat="42.93594" lon="0.70108">
        <ele>745.16</ele>
        <time>2018-03-14T15:10:41Z</time>
      </trkpt>
      <trkpt lat="42.93599" lon="0.70123">
        <ele>745.16</ele>
        <time>2018-03-14T15:10:53Z</time>
      </trkpt>
      <trkpt lat="42.936" lon="0.70126">
        <ele>746.6</ele>
        <time>2018-03-14T15:10:56Z</time>
      </trkpt>
      <trkpt lat="42.93606" lon="0.7014">
        <ele>746.6</ele>
        <time>2018-03-14T15:11:07Z</time>
      </trkpt>
      <trkpt lat="42.93615" lon="0.70147">
        <ele>747.08</ele>
        <time>2018-03-14T15:11:20Z</time>
      </trkpt>
      <trkpt lat="42.93617" lon="0.70152">
        <ele>747.56</ele>
        <time>2018-03-14T15:11:37Z</time>
      </trkpt>
      <trkpt lat="42.93615" lon="0.70149">
        <ele>747.56</ele>
        <time>2018-03-14T15:11:53Z</time>
      </trkpt>
      <trkpt lat="42.93611" lon="0.70153">
        <ele>747.56</ele>
        <time>2018-03-14T15:12:11Z</time>
      </trkpt>
      <trkpt lat="42.93615" lon="0.70157">
        <ele>747.08</ele>
        <time>2018-03-14T15:12:32Z</time>
      </trkpt>
      <trkpt lat="42.93617" lon="0.70158">
        <ele>747.08</ele>
        <time>2018-03-14T15:12:49Z</time>
      </trkpt>
      <trkpt lat="42.93617" lon="0.70166">
        <ele>747.08</ele>
        <time>2018-03-14T15:13:04Z</time>
      </trkpt>
      <trkpt lat="42.93613" lon="0.70181">
        <ele>747.08</ele>
        <time>2018-03-14T15:13:16Z</time>
      </trkpt>
      <trkpt lat="42.93615" lon="0.70191">
        <ele>745.64</ele>
        <time>2018-03-14T15:13:24Z</time>
      </trkpt>
      <trkpt lat="42.93617" lon="0.70197">
        <ele>745.16</ele>
        <time>2018-03-14T15:13:29Z</time>
      </trkpt>
      <trkpt lat="42.93622" lon="0.7022">
        <ele>744.68</ele>
        <time>2018-03-14T15:13:45Z</time>
      </trkpt>
      <trkpt lat="42.93623" lon="0.70222">
        <ele>744.68</ele>
        <time>2018-03-14T15:13:46Z</time>
      </trkpt>
      <trkpt lat="42.93629" lon="0.70238">
        <ele>744.68</ele>
        <time>2018-03-14T15:14:00Z</time>
      </trkpt>
      <trkpt lat="42.93633" lon="0.70258">
        <ele>744.68</ele>
        <time>2018-03-14T15:14:13Z</time>
      </trkpt>
      <trkpt lat="42.93635" lon="0.70264">
        <ele>746.12</ele>
        <time>2018-03-14T15:14:28Z</time>
      </trkpt>
      <trkpt lat="42.93634" lon="0.70267">
        <ele>745.16</ele>
        <time>2018-03-14T15:14:35Z</time>
      </trkpt>
      <trkpt lat="42.93634" lon="0.70267">
        <ele>747.08</ele>
        <time>2018-03-14T15:14:36Z</time>
      </trkpt>
      <trkpt lat="42.93635" lon="0.70266">
        <ele>747.08</ele>
        <time>2018-03-14T15:14:55Z</time>
      </trkpt>
      <trkpt lat="42.93638" lon="0.70273">
        <ele>747.56</ele>
        <time>2018-03-14T15:15:05Z</time>
      </trkpt>
      <trkpt lat="42.9364" lon="0.70279">
        <ele>748.52</ele>
        <time>2018-03-14T15:15:12Z</time>
      </trkpt>
      <trkpt lat="42.93645" lon="0.70287">
        <ele>750.45</ele>
        <time>2018-03-14T15:15:24Z</time>
      </trkpt>
      <trkpt lat="42.93644" lon="0.70288">
        <ele>750.45</ele>
        <time>2018-03-14T15:15:25Z</time>
      </trkpt>
      <trkpt lat="42.93649" lon="0.70294">
        <ele>751.41</ele>
        <time>2018-03-14T15:15:34Z</time>
      </trkpt>
      <trkpt lat="42.93654" lon="0.70302">
        <ele>752.37</ele>
        <time>2018-03-14T15:15:44Z</time>
      </trkpt>
      <trkpt lat="42.93661" lon="0.70312">
        <ele>753.33</ele>
        <time>2018-03-14T15:15:57Z</time>
      </trkpt>
      <trkpt lat="42.93667" lon="0.70322">
        <ele>754.77</ele>
        <time>2018-03-14T15:16:10Z</time>
      </trkpt>
      <trkpt lat="42.93675" lon="0.70332">
        <ele>756.21</ele>
        <time>2018-03-14T15:16:22Z</time>
      </trkpt>
      <trkpt lat="42.93676" lon="0.70337">
        <ele>757.66</ele>
        <time>2018-03-14T15:16:36Z</time>
      </trkpt>
      <trkpt lat="42.9368" lon="0.70337">
        <ele>759.1</ele>
        <time>2018-03-14T15:16:56Z</time>
      </trkpt>
      <trkpt lat="42.93686" lon="0.70343">
        <ele>760.54</ele>
        <time>2018-03-14T15:17:08Z</time>
      </trkpt>
      <trkpt lat="42.93689" lon="0.70347">
        <ele>761.02</ele>
        <time>2018-03-14T15:17:23Z</time>
      </trkpt>
      <trkpt lat="42.93697" lon="0.7035">
        <ele>762.46</ele>
        <time>2018-03-14T15:17:38Z</time>
      </trkpt>
      <trkpt lat="42.93703" lon="0.70355">
        <ele>763.9</ele>
        <time>2018-03-14T15:17:50Z</time>
      </trkpt>
      <trkpt lat="42.9371" lon="0.70358">
        <ele>763.9</ele>
        <time>2018-03-14T15:18:04Z</time>
      </trkpt>
      <trkpt lat="42.93713" lon="0.70367">
        <ele>764.39</ele>
        <time>2018-03-14T15:18:17Z</time>
      </trkpt>
      <trkpt lat="42.93718" lon="0.70375">
        <ele>766.79</ele>
        <time>2018-03-14T15:18:30Z</time>
      </trkpt>
      <trkpt lat="42.93724" lon="0.70383">
        <ele>767.75</ele>
        <time>2018-03-14T15:18:43Z</time>
      </trkpt>
      <trkpt lat="42.93731" lon="0.7039">
        <ele>769.19</ele>
        <time>2018-03-14T15:18:58Z</time>
      </trkpt>
      <trkpt lat="42.93738" lon="0.70403">
        <ele>770.63</ele>
        <time>2018-03-14T15:19:12Z</time>
      </trkpt>
      <trkpt lat="42.93742" lon="0.7041">
        <ele>772.56</ele>
        <time>2018-03-14T15:19:26Z</time>
      </trkpt>
      <trkpt lat="42.93748" lon="0.70415">
        <ele>773.52</ele>
        <time>2018-03-14T15:19:40Z</time>
      </trkpt>
      <trkpt lat="42.93755" lon="0.70419">
        <ele>774.48</ele>
        <time>2018-03-14T15:19:54Z</time>
      </trkpt>
      <trkpt lat="42.93759" lon="0.70427">
        <ele>776.88</ele>
        <time>2018-03-14T15:20:10Z</time>
      </trkpt>
      <trkpt lat="42.93762" lon="0.70433">
        <ele>777.84</ele>
        <time>2018-03-14T15:20:24Z</time>
      </trkpt>
      <trkpt lat="42.93768" lon="0.70441">
        <ele>780.25</ele>
        <time>2018-03-14T15:20:40Z</time>
      </trkpt>
      <trkpt lat="42.93771" lon="0.70445">
        <ele>782.17</ele>
        <time>2018-03-14T15:20:54Z</time>
      </trkpt>
      <trkpt lat="42.93776" lon="0.70446">
        <ele>783.13</ele>
        <time>2018-03-14T15:21:07Z</time>
      </trkpt>
      <trkpt lat="42.9378" lon="0.70456">
        <ele>784.09</ele>
        <time>2018-03-14T15:21:20Z</time>
      </trkpt>
      <trkpt lat="42.93783" lon="0.70458">
        <ele>784.57</ele>
        <time>2018-03-14T15:21:27Z</time>
      </trkpt>
      <trkpt lat="42.9379" lon="0.70466">
        <ele>785.53</ele>
        <time>2018-03-14T15:21:38Z</time>
      </trkpt>
      <trkpt lat="42.93795" lon="0.70473">
        <ele>786.5</ele>
        <time>2018-03-14T15:21:52Z</time>
      </trkpt>
      <trkpt lat="42.93797" lon="0.70486">
        <ele>788.42</ele>
        <time>2018-03-14T15:22:05Z</time>
      </trkpt>
      <trkpt lat="42.93803" lon="0.70498">
        <ele>788.9</ele>
        <time>2018-03-14T15:22:20Z</time>
      </trkpt>
      <trkpt lat="42.93806" lon="0.70501">
        <ele>790.82</ele>
        <time>2018-03-14T15:22:33Z</time>
      </trkpt>
      <trkpt lat="42.93808" lon="0.70511">
        <ele>792.74</ele>
        <time>2018-03-14T15:22:47Z</time>
      </trkpt>
      <trkpt lat="42.93813" lon="0.70518">
        <ele>794.19</ele>
        <time>2018-03-14T15:23:01Z</time>
      </trkpt>
      <trkpt lat="42.93814" lon="0.70528">
        <ele>796.11</ele>
        <time>2018-03-14T15:23:13Z</time>
      </trkpt>
      <trkpt lat="42.93808" lon="0.70537">
        <ele>798.51</ele>
        <time>2018-03-14T15:23:28Z</time>
      </trkpt>
      <trkpt lat="42.93808" lon="0.70544">
        <ele>800.92</ele>
        <time>2018-03-14T15:23:42Z</time>
      </trkpt>
      <trkpt lat="42.93808" lon="0.70554">
        <ele>802.36</ele>
        <time>2018-03-14T15:23:55Z</time>
      </trkpt>
      <trkpt lat="42.93809" lon="0.70564">
        <ele>804.76</ele>
        <time>2018-03-14T15:24:10Z</time>
      </trkpt>
      <trkpt lat="42.93808" lon="0.70571">
        <ele>807.16</ele>
        <time>2018-03-14T15:24:27Z</time>
      </trkpt>
      <trkpt lat="42.9381" lon="0.70582">
        <ele>808.13</ele>
        <time>2018-03-14T15:24:41Z</time>
      </trkpt>
      <trkpt lat="42.93813" lon="0.70594">
        <ele>809.09</ele>
        <time>2018-03-14T15:24:56Z</time>
      </trkpt>
      <trkpt lat="42.93819" lon="0.70609">
        <ele>811.49</ele>
        <time>2018-03-14T15:25:14Z</time>
      </trkpt>
      <trkpt lat="42.93825" lon="0.70617">
        <ele>812.93</ele>
        <time>2018-03-14T15:25:27Z</time>
      </trkpt>
      <trkpt lat="42.9383" lon="0.70622">
        <ele>813.89</ele>
        <time>2018-03-14T15:25:41Z</time>
      </trkpt>
      <trkpt lat="42.93834" lon="0.70632">
        <ele>816.3</ele>
        <time>2018-03-14T15:25:54Z</time>
      </trkpt>
      <trkpt lat="42.93835" lon="0.70641">
        <ele>818.7</ele>
        <time>2018-03-14T15:26:08Z</time>
      </trkpt>
      <trkpt lat="42.93838" lon="0.70648">
        <ele>820.14</ele>
        <time>2018-03-14T15:26:20Z</time>
      </trkpt>
      <trkpt lat="42.93839" lon="0.70653">
        <ele>822.06</ele>
        <time>2018-03-14T15:26:33Z</time>
      </trkpt>
      <trkpt lat="42.93841" lon="0.70657">
        <ele>823.99</ele>
        <time>2018-03-14T15:26:48Z</time>
      </trkpt>
      <trkpt lat="42.93844" lon="0.70665">
        <ele>825.91</ele>
        <time>2018-03-14T15:27:06Z</time>
      </trkpt>
      <trkpt lat="42.93855" lon="0.70675">
        <ele>827.83</ele>
        <time>2018-03-14T15:27:20Z</time>
      </trkpt>
      <trkpt lat="42.93854" lon="0.7069">
        <ele>829.76</ele>
        <time>2018-03-14T15:27:37Z</time>
      </trkpt>
      <trkpt lat="42.9384" lon="0.70699">
        <ele>831.2</ele>
        <time>2018-03-14T15:27:52Z</time>
      </trkpt>
      <trkpt lat="42.93828" lon="0.70697">
        <ele>831.68</ele>
        <time>2018-03-14T15:28:06Z</time>
      </trkpt>
      <trkpt lat="42.93825" lon="0.70696">
        <ele>832.16</ele>
        <time>2018-03-14T15:28:17Z</time>
      </trkpt>
      <trkpt lat="42.93811" lon="0.70692">
        <ele>831.68</ele>
        <time>2018-03-14T15:28:33Z</time>
      </trkpt>
      <trkpt lat="42.93801" lon="0.7069">
        <ele>834.56</ele>
        <time>2018-03-14T15:28:46Z</time>
      </trkpt>
      <trkpt lat="42.93794" lon="0.70685">
        <ele>836.48</ele>
        <time>2018-03-14T15:29:00Z</time>
      </trkpt>
      <trkpt lat="42.93785" lon="0.70676">
        <ele>839.37</ele>
        <time>2018-03-14T15:29:15Z</time>
      </trkpt>
      <trkpt lat="42.93777" lon="0.70676">
        <ele>841.29</ele>
        <time>2018-03-14T15:29:29Z</time>
      </trkpt>
      <trkpt lat="42.93769" lon="0.70673">
        <ele>842.73</ele>
        <time>2018-03-14T15:29:41Z</time>
      </trkpt>
      <trkpt lat="42.93759" lon="0.70671">
        <ele>845.14</ele>
        <time>2018-03-14T15:29:54Z</time>
      </trkpt>
      <trkpt lat="42.93751" lon="0.7067">
        <ele>847.06</ele>
        <time>2018-03-14T15:30:08Z</time>
      </trkpt>
      <trkpt lat="42.93741" lon="0.70664">
        <ele>848.98</ele>
        <time>2018-03-14T15:30:22Z</time>
      </trkpt>
      <trkpt lat="42.93734" lon="0.70658">
        <ele>851.38</ele>
        <time>2018-03-14T15:30:35Z</time>
      </trkpt>
      <trkpt lat="42.93727" lon="0.70658">
        <ele>853.31</ele>
        <time>2018-03-14T15:30:50Z</time>
      </trkpt>
      <trkpt lat="42.93719" lon="0.70655">
        <ele>854.75</ele>
        <time>2018-03-14T15:31:03Z</time>
      </trkpt>
      <trkpt lat="42.93708" lon="0.70647">
        <ele>857.63</ele>
        <time>2018-03-14T15:31:18Z</time>
      </trkpt>
      <trkpt lat="42.93702" lon="0.70647">
        <ele>859.08</ele>
        <time>2018-03-14T15:31:30Z</time>
      </trkpt>
      <trkpt lat="42.93696" lon="0.70651">
        <ele>860.04</ele>
        <time>2018-03-14T15:31:42Z</time>
      </trkpt>
      <trkpt lat="42.93686" lon="0.70654">
        <ele>861</ele>
        <time>2018-03-14T15:31:54Z</time>
      </trkpt>
      <trkpt lat="42.93676" lon="0.70657">
        <ele>861.96</ele>
        <time>2018-03-14T15:32:05Z</time>
      </trkpt>
      <trkpt lat="42.93666" lon="0.70659">
        <ele>862.44</ele>
        <time>2018-03-14T15:32:16Z</time>
      </trkpt>
      <trkpt lat="42.9366" lon="0.7066">
        <ele>863.4</ele>
        <time>2018-03-14T15:32:28Z</time>
      </trkpt>
      <trkpt lat="42.93663" lon="0.70664">
        <ele>863.4</ele>
        <time>2018-03-14T15:32:50Z</time>
      </trkpt>
      <trkpt lat="42.93663" lon="0.70661">
        <ele>862.92</ele>
        <time>2018-03-14T15:33:24Z</time>
      </trkpt>
      <trkpt lat="42.93661" lon="0.70662">
        <ele>862.92</ele>
        <time>2018-03-14T15:33:49Z</time>
      </trkpt>
      <trkpt lat="42.93659" lon="0.70663">
        <ele>862.92</ele>
        <time>2018-03-14T15:34:12Z</time>
      </trkpt>
      <trkpt lat="42.93653" lon="0.7066">
        <ele>862.92</ele>
        <time>2018-03-14T15:34:29Z</time>
      </trkpt>
      <trkpt lat="42.93652" lon="0.7066">
        <ele>861.48</ele>
        <time>2018-03-14T15:34:30Z</time>
      </trkpt>
      <trkpt lat="42.93637" lon="0.70647">
        <ele>859.56</ele>
        <time>2018-03-14T15:34:44Z</time>
      </trkpt>
      <trkpt lat="42.93627" lon="0.70638">
        <ele>858.11</ele>
        <time>2018-03-14T15:34:54Z</time>
      </trkpt>
      <trkpt lat="42.93611" lon="0.70627">
        <ele>855.71</ele>
        <time>2018-03-14T15:35:08Z</time>
      </trkpt>
      <trkpt lat="42.93595" lon="0.70614">
        <ele>853.79</ele>
        <time>2018-03-14T15:35:22Z</time>
      </trkpt>
      <trkpt lat="42.93583" lon="0.70605">
        <ele>852.35</ele>
        <time>2018-03-14T15:35:33Z</time>
      </trkpt>
      <trkpt lat="42.93564" lon="0.70599">
        <ele>849.94</ele>
        <time>2018-03-14T15:35:50Z</time>
      </trkpt>
      <trkpt lat="42.93549" lon="0.70595">
        <ele>848.02</ele>
        <time>2018-03-14T15:36:03Z</time>
      </trkpt>
      <trkpt lat="42.93535" lon="0.7059">
        <ele>845.62</ele>
        <time>2018-03-14T15:36:16Z</time>
      </trkpt>
      <trkpt lat="42.93516" lon="0.70585">
        <ele>842.73</ele>
        <time>2018-03-14T15:36:31Z</time>
      </trkpt>
      <trkpt lat="42.93503" lon="0.7058">
        <ele>841.29</ele>
        <time>2018-03-14T15:36:45Z</time>
      </trkpt>
      <trkpt lat="42.93492" lon="0.70579">
        <ele>839.85</ele>
        <time>2018-03-14T15:36:58Z</time>
      </trkpt>
      <trkpt lat="42.93488" lon="0.70578">
        <ele>839.37</ele>
        <time>2018-03-14T15:37:02Z</time>
      </trkpt>
      <trkpt lat="42.93481" lon="0.70578">
        <ele>838.89</ele>
        <time>2018-03-14T15:37:07Z</time>
      </trkpt>
      <trkpt lat="42.9346" lon="0.70574">
        <ele>836.48</ele>
        <time>2018-03-14T15:37:24Z</time>
      </trkpt>
      <trkpt lat="42.93444" lon="0.70571">
        <ele>835.04</ele>
        <time>2018-03-14T15:37:37Z</time>
      </trkpt>
      <trkpt lat="42.93428" lon="0.70569">
        <ele>833.6</ele>
        <time>2018-03-14T15:37:52Z</time>
      </trkpt>
      <trkpt lat="42.93412" lon="0.70569">
        <ele>832.16</ele>
        <time>2018-03-14T15:38:07Z</time>
      </trkpt>
      <trkpt lat="42.93396" lon="0.70567">
        <ele>830.72</ele>
        <time>2018-03-14T15:38:20Z</time>
      </trkpt>
      <trkpt lat="42.93387" lon="0.70567">
        <ele>829.76</ele>
        <time>2018-03-14T15:38:26Z</time>
      </trkpt>
      <trkpt lat="42.93369" lon="0.70568">
        <ele>828.31</ele>
        <time>2018-03-14T15:38:41Z</time>
      </trkpt>
      <trkpt lat="42.93367" lon="0.70568">
        <ele>827.35</ele>
        <time>2018-03-14T15:38:43Z</time>
      </trkpt>
      <trkpt lat="42.93361" lon="0.7057">
        <ele>826.87</ele>
        <time>2018-03-14T15:38:48Z</time>
      </trkpt>
      <trkpt lat="42.93352" lon="0.7057">
        <ele>825.91</ele>
        <time>2018-03-14T15:38:56Z</time>
      </trkpt>
      <trkpt lat="42.93346" lon="0.70572">
        <ele>825.43</ele>
        <time>2018-03-14T15:39:01Z</time>
      </trkpt>
      <trkpt lat="42.93331" lon="0.70575">
        <ele>823.51</ele>
        <time>2018-03-14T15:39:17Z</time>
      </trkpt>
      <trkpt lat="42.93324" lon="0.7058">
        <ele>822.06</ele>
        <time>2018-03-14T15:39:27Z</time>
      </trkpt>
      <trkpt lat="42.9331" lon="0.70583">
        <ele>821.58</ele>
        <time>2018-03-14T15:39:38Z</time>
      </trkpt>
      <trkpt lat="42.93296" lon="0.70583">
        <ele>820.14</ele>
        <time>2018-03-14T15:39:51Z</time>
      </trkpt>
      <trkpt lat="42.93283" lon="0.70591">
        <ele>819.18</ele>
        <time>2018-03-14T15:40:03Z</time>
      </trkpt>
      <trkpt lat="42.93279" lon="0.70594">
        <ele>818.7</ele>
        <time>2018-03-14T15:40:07Z</time>
      </trkpt>
      <trkpt lat="42.93265" lon="0.70609">
        <ele>817.26</ele>
        <time>2018-03-14T15:40:22Z</time>
      </trkpt>
      <trkpt lat="42.93254" lon="0.70625">
        <ele>815.82</ele>
        <time>2018-03-14T15:40:36Z</time>
      </trkpt>
      <trkpt lat="42.93253" lon="0.70627">
        <ele>815.34</ele>
        <time>2018-03-14T15:40:38Z</time>
      </trkpt>
      <trkpt lat="42.9325" lon="0.70629">
        <ele>815.34</ele>
        <time>2018-03-14T15:40:42Z</time>
      </trkpt>
      <trkpt lat="42.93245" lon="0.70638">
        <ele>813.89</ele>
        <time>2018-03-14T15:40:49Z</time>
      </trkpt>
      <trkpt lat="42.93239" lon="0.70655">
        <ele>811.49</ele>
        <time>2018-03-14T15:41:02Z</time>
      </trkpt>
      <trkpt lat="42.9323" lon="0.70664">
        <ele>809.57</ele>
        <time>2018-03-14T15:41:13Z</time>
      </trkpt>
      <trkpt lat="42.93222" lon="0.7067">
        <ele>809.09</ele>
        <time>2018-03-14T15:41:19Z</time>
      </trkpt>
      <trkpt lat="42.93209" lon="0.70673">
        <ele>807.64</ele>
        <time>2018-03-14T15:41:28Z</time>
      </trkpt>
      <trkpt lat="42.93195" lon="0.70677">
        <ele>805.72</ele>
        <time>2018-03-14T15:41:41Z</time>
      </trkpt>
      <trkpt lat="42.9319" lon="0.70677">
        <ele>805.24</ele>
        <time>2018-03-14T15:41:45Z</time>
      </trkpt>
      <trkpt lat="42.93177" lon="0.70678">
        <ele>803.8</ele>
        <time>2018-03-14T15:41:56Z</time>
      </trkpt>
      <trkpt lat="42.93162" lon="0.70683">
        <ele>802.84</ele>
        <time>2018-03-14T15:42:11Z</time>
      </trkpt>
      <trkpt lat="42.93147" lon="0.70687">
        <ele>800.92</ele>
        <time>2018-03-14T15:42:23Z</time>
      </trkpt>
      <trkpt lat="42.93134" lon="0.7069">
        <ele>799.47</ele>
        <time>2018-03-14T15:42:36Z</time>
      </trkpt>
      <trkpt lat="42.93126" lon="0.70692">
        <ele>798.51</ele>
        <time>2018-03-14T15:42:45Z</time>
      </trkpt>
      <trkpt lat="42.9311" lon="0.70692">
        <ele>796.59</ele>
        <time>2018-03-14T15:43:02Z</time>
      </trkpt>
      <trkpt lat="42.93107" lon="0.70692">
        <ele>796.59</ele>
        <time>2018-03-14T15:43:05Z</time>
      </trkpt>
      <trkpt lat="42.93096" lon="0.70703">
        <ele>795.63</ele>
        <time>2018-03-14T15:43:17Z</time>
      </trkpt>
      <trkpt lat="42.93089" lon="0.70718">
        <ele>794.19</ele>
        <time>2018-03-14T15:43:31Z</time>
      </trkpt>
      <trkpt lat="42.93084" lon="0.70728">
        <ele>793.71</ele>
        <time>2018-03-14T15:43:41Z</time>
      </trkpt>
      <trkpt lat="42.93079" lon="0.70745">
        <ele>791.78</ele>
        <time>2018-03-14T15:43:56Z</time>
      </trkpt>
      <trkpt lat="42.93076" lon="0.70761">
        <ele>790.82</ele>
        <time>2018-03-14T15:44:10Z</time>
      </trkpt>
      <trkpt lat="42.93075" lon="0.70771">
        <ele>790.34</ele>
        <time>2018-03-14T15:44:20Z</time>
      </trkpt>
      <trkpt lat="42.93069" lon="0.70791">
        <ele>788.42</ele>
        <time>2018-03-14T15:44:35Z</time>
      </trkpt>
      <trkpt lat="42.93064" lon="0.70806">
        <ele>786.98</ele>
        <time>2018-03-14T15:44:48Z</time>
      </trkpt>
      <trkpt lat="42.93057" lon="0.70818">
        <ele>785.53</ele>
        <time>2018-03-14T15:45:00Z</time>
      </trkpt>
      <trkpt lat="42.9305" lon="0.70834">
        <ele>784.09</ele>
        <time>2018-03-14T15:45:14Z</time>
      </trkpt>
      <trkpt lat="42.93044" lon="0.70846">
        <ele>782.65</ele>
        <time>2018-03-14T15:45:26Z</time>
      </trkpt>
      <trkpt lat="42.93045" lon="0.70854">
        <ele>781.21</ele>
        <time>2018-03-14T15:45:35Z</time>
      </trkpt>
      <trkpt lat="42.93044" lon="0.70869">
        <ele>779.77</ele>
        <time>2018-03-14T15:45:48Z</time>
      </trkpt>
      <trkpt lat="42.93039" lon="0.70878">
        <ele>779.29</ele>
        <time>2018-03-14T15:45:55Z</time>
      </trkpt>
      <trkpt lat="42.93035" lon="0.70885">
        <ele>778.81</ele>
        <time>2018-03-14T15:46:01Z</time>
      </trkpt>
      <trkpt lat="42.93024" lon="0.709">
        <ele>777.84</ele>
        <time>2018-03-14T15:46:12Z</time>
      </trkpt>
      <trkpt lat="42.93011" lon="0.70921">
        <ele>777.36</ele>
        <time>2018-03-14T15:46:27Z</time>
      </trkpt>
      <trkpt lat="42.92995" lon="0.70933">
        <ele>776.4</ele>
        <time>2018-03-14T15:46:41Z</time>
      </trkpt>
      <trkpt lat="42.92993" lon="0.70936">
        <ele>776.4</ele>
        <time>2018-03-14T15:47:00Z</time>
      </trkpt>
      <trkpt lat="42.9299" lon="0.70922">
        <ele>774.96</ele>
        <time>2018-03-14T15:47:11Z</time>
      </trkpt>
      <trkpt lat="42.92985" lon="0.70913">
        <ele>773.04</ele>
        <time>2018-03-14T15:47:23Z</time>
      </trkpt>
      <trkpt lat="42.92974" lon="0.70906">
        <ele>772.08</ele>
        <time>2018-03-14T15:47:36Z</time>
      </trkpt>
      <trkpt lat="42.92973" lon="0.70905">
        <ele>772.08</ele>
        <time>2018-03-14T15:47:37Z</time>
      </trkpt>
      <trkpt lat="42.92965" lon="0.70884">
        <ele>771.6</ele>
        <time>2018-03-14T15:47:50Z</time>
      </trkpt>
      <trkpt lat="42.92964" lon="0.70879">
        <ele>771.11</ele>
        <time>2018-03-14T15:47:54Z</time>
      </trkpt>
      <trkpt lat="42.92966" lon="0.70854">
        <ele>768.71</ele>
        <time>2018-03-14T15:48:07Z</time>
      </trkpt>
      <trkpt lat="42.92969" lon="0.70835">
        <ele>767.27</ele>
        <time>2018-03-14T15:48:19Z</time>
      </trkpt>
      <trkpt lat="42.92969" lon="0.70812">
        <ele>765.35</ele>
        <time>2018-03-14T15:48:32Z</time>
      </trkpt>
      <trkpt lat="42.92973" lon="0.70788">
        <ele>762.94</ele>
        <time>2018-03-14T15:48:46Z</time>
      </trkpt>
      <trkpt lat="42.92971" lon="0.70787">
        <ele>762.94</ele>
        <time>2018-03-14T15:48:48Z</time>
      </trkpt>
      <trkpt lat="42.92979" lon="0.70768">
        <ele>760.54</ele>
        <time>2018-03-14T15:49:01Z</time>
      </trkpt>
      <trkpt lat="42.92982" lon="0.70759">
        <ele>759.1</ele>
        <time>2018-03-14T15:49:08Z</time>
      </trkpt>
      <trkpt lat="42.92973" lon="0.70739">
        <ele>756.69</ele>
        <time>2018-03-14T15:49:25Z</time>
      </trkpt>
      <trkpt lat="42.92973" lon="0.7072">
        <ele>755.73</ele>
        <time>2018-03-14T15:49:37Z</time>
      </trkpt>
      <trkpt lat="42.92959" lon="0.70705">
        <ele>754.29</ele>
        <time>2018-03-14T15:49:52Z</time>
      </trkpt>
      <trkpt lat="42.92955" lon="0.70687">
        <ele>752.37</ele>
        <time>2018-03-14T15:50:04Z</time>
      </trkpt>
      <trkpt lat="42.92959" lon="0.70679">
        <ele>751.41</ele>
        <time>2018-03-14T15:50:09Z</time>
      </trkpt>
      <trkpt lat="42.92979" lon="0.70652">
        <ele>748.52</ele>
        <time>2018-03-14T15:50:24Z</time>
      </trkpt>
      <trkpt lat="42.92984" lon="0.70635">
        <ele>746.6</ele>
        <time>2018-03-14T15:50:37Z</time>
      </trkpt>
      <trkpt lat="42.92985" lon="0.70621">
        <ele>745.16</ele>
        <time>2018-03-14T15:50:48Z</time>
      </trkpt>
      <trkpt lat="42.92989" lon="0.70604">
        <ele>743.72</ele>
        <time>2018-03-14T15:51:00Z</time>
      </trkpt>
      <trkpt lat="42.92994" lon="0.70586">
        <ele>741.79</ele>
        <time>2018-03-14T15:51:13Z</time>
      </trkpt>
      <trkpt lat="42.93" lon="0.70576">
        <ele>740.83</ele>
        <time>2018-03-14T15:51:25Z</time>
      </trkpt>
      <trkpt lat="42.93002" lon="0.70572">
        <ele>739.39</ele>
        <time>2018-03-14T15:51:29Z</time>
      </trkpt>
      <trkpt lat="42.9301" lon="0.70569">
        <ele>739.39</ele>
        <time>2018-03-14T15:51:41Z</time>
      </trkpt>
      <trkpt lat="42.93019" lon="0.70567">
        <ele>739.39</ele>
        <time>2018-03-14T15:51:52Z</time>
      </trkpt>
      <trkpt lat="42.93027" lon="0.70561">
        <ele>738.91</ele>
        <time>2018-03-14T15:52:04Z</time>
      </trkpt>
      <trkpt lat="42.93029" lon="0.7056">
        <ele>738.43</ele>
        <time>2018-03-14T15:52:21Z</time>
      </trkpt>
      <trkpt lat="42.93028" lon="0.70556">
        <ele>738.43</ele>
        <time>2018-03-14T15:52:35Z</time>
      </trkpt>
      <trkpt lat="42.9303" lon="0.70545">
        <ele>737.95</ele>
        <time>2018-03-14T15:52:48Z</time>
      </trkpt>
      <trkpt lat="42.9303" lon="0.70534">
        <ele>736.99</ele>
        <time>2018-03-14T15:52:59Z</time>
      </trkpt>
      <trkpt lat="42.93029" lon="0.7052">
        <ele>736.51</ele>
        <time>2018-03-14T15:53:12Z</time>
      </trkpt>
      <trkpt lat="42.93029" lon="0.70509">
        <ele>735.07</ele>
        <time>2018-03-14T15:53:25Z</time>
      </trkpt>
      <trkpt lat="42.93033" lon="0.70499">
        <ele>734.1</ele>
        <time>2018-03-14T15:53:37Z</time>
      </trkpt>
      <trkpt lat="42.93034" lon="0.70483">
        <ele>733.14</ele>
        <time>2018-03-14T15:53:51Z</time>
      </trkpt>
      <trkpt lat="42.93037" lon="0.7046">
        <ele>731.7</ele>
        <time>2018-03-14T15:54:06Z</time>
      </trkpt>
      <trkpt lat="42.93039" lon="0.70442">
        <ele>730.26</ele>
        <time>2018-03-14T15:54:19Z</time>
      </trkpt>
      <trkpt lat="42.93043" lon="0.70427">
        <ele>729.3</ele>
        <time>2018-03-14T15:54:32Z</time>
      </trkpt>
      <trkpt lat="42.93049" lon="0.70413">
        <ele>727.86</ele>
        <time>2018-03-14T15:54:45Z</time>
      </trkpt>
      <trkpt lat="42.93054" lon="0.70398">
        <ele>726.89</ele>
        <time>2018-03-14T15:55:00Z</time>
      </trkpt>
      <trkpt lat="42.93059" lon="0.70383">
        <ele>725.93</ele>
        <time>2018-03-14T15:55:13Z</time>
      </trkpt>
      <trkpt lat="42.93063" lon="0.70371">
        <ele>724.97</ele>
        <time>2018-03-14T15:55:27Z</time>
      </trkpt>
      <trkpt lat="42.93069" lon="0.70357">
        <ele>724.49</ele>
        <time>2018-03-14T15:55:39Z</time>
      </trkpt>
      <trkpt lat="42.93074" lon="0.70344">
        <ele>723.05</ele>
        <time>2018-03-14T15:55:52Z</time>
      </trkpt>
      <trkpt lat="42.9308" lon="0.70334">
        <ele>721.61</ele>
        <time>2018-03-14T15:56:03Z</time>
      </trkpt>
      <trkpt lat="42.93086" lon="0.70319">
        <ele>720.65</ele>
        <time>2018-03-14T15:56:17Z</time>
      </trkpt>
      <trkpt lat="42.93089" lon="0.70301">
        <ele>719.68</ele>
        <time>2018-03-14T15:56:30Z</time>
      </trkpt>
      <trkpt lat="42.93097" lon="0.70287">
        <ele>718.72</ele>
        <time>2018-03-14T15:56:43Z</time>
      </trkpt>
      <trkpt lat="42.93102" lon="0.70267">
        <ele>717.76</ele>
        <time>2018-03-14T15:56:57Z</time>
      </trkpt>
      <trkpt lat="42.9311" lon="0.70257">
        <ele>717.28</ele>
        <time>2018-03-14T15:57:09Z</time>
      </trkpt>
      <trkpt lat="42.93117" lon="0.70248">
        <ele>715.84</ele>
        <time>2018-03-14T15:57:22Z</time>
      </trkpt>
      <trkpt lat="42.93124" lon="0.70234">
        <ele>714.88</ele>
        <time>2018-03-14T15:57:34Z</time>
      </trkpt>
      <trkpt lat="42.9313" lon="0.70216">
        <ele>713.92</ele>
        <time>2018-03-14T15:57:47Z</time>
      </trkpt>
      <trkpt lat="42.93138" lon="0.70202">
        <ele>712.95</ele>
        <time>2018-03-14T15:58:00Z</time>
      </trkpt>
      <trkpt lat="42.9314" lon="0.70198">
        <ele>712.47</ele>
        <time>2018-03-14T15:58:03Z</time>
      </trkpt>
      <trkpt lat="42.93147" lon="0.70182">
        <ele>711.99</ele>
        <time>2018-03-14T15:58:13Z</time>
      </trkpt>
      <trkpt lat="42.93154" lon="0.70163">
        <ele>710.55</ele>
        <time>2018-03-14T15:58:28Z</time>
      </trkpt>
      <trkpt lat="42.93157" lon="0.7016">
        <ele>710.55</ele>
        <time>2018-03-14T15:58:45Z</time>
      </trkpt>
      <trkpt lat="42.93162" lon="0.70145">
        <ele>710.07</ele>
        <time>2018-03-14T15:58:59Z</time>
      </trkpt>
      <trkpt lat="42.93167" lon="0.70136">
        <ele>708.63</ele>
        <time>2018-03-14T15:59:14Z</time>
      </trkpt>
      <trkpt lat="42.93174" lon="0.70122">
        <ele>707.67</ele>
        <time>2018-03-14T15:59:30Z</time>
      </trkpt>
      <trkpt lat="42.93181" lon="0.70115">
        <ele>706.71</ele>
        <time>2018-03-14T15:59:42Z</time>
      </trkpt>
      <trkpt lat="42.93189" lon="0.701">
        <ele>706.23</ele>
        <time>2018-03-14T15:59:54Z</time>
      </trkpt>
      <trkpt lat="42.93199" lon="0.70085">
        <ele>705.26</ele>
        <time>2018-03-14T16:00:07Z</time>
      </trkpt>
      <trkpt lat="42.93198" lon="0.70079">
        <ele>704.78</ele>
        <time>2018-03-14T16:00:41Z</time>
      </trkpt>
      <trkpt lat="42.93205" lon="0.70077">
        <ele>703.82</ele>
        <time>2018-03-14T16:00:55Z</time>
      </trkpt>
      <trkpt lat="42.93217" lon="0.70084">
        <ele>702.86</ele>
        <time>2018-03-14T16:01:11Z</time>
      </trkpt>
      <trkpt lat="42.93219" lon="0.70088">
        <ele>702.86</ele>
        <time>2018-03-14T16:01:27Z</time>
      </trkpt>
      <trkpt lat="42.9323" lon="0.70098">
        <ele>701.42</ele>
        <time>2018-03-14T16:01:42Z</time>
      </trkpt>
      <trkpt lat="42.93242" lon="0.70105">
        <ele>699.02</ele>
        <time>2018-03-14T16:01:56Z</time>
      </trkpt>
      <trkpt lat="42.93251" lon="0.70106">
        <ele>697.57</ele>
        <time>2018-03-14T16:02:06Z</time>
      </trkpt>
      <trkpt lat="42.93264" lon="0.70109">
        <ele>694.69</ele>
        <time>2018-03-14T16:02:23Z</time>
      </trkpt>
      <trkpt lat="42.9327" lon="0.70102">
        <ele>693.25</ele>
        <time>2018-03-14T16:02:36Z</time>
      </trkpt>
      <trkpt lat="42.9328" lon="0.70098">
        <ele>691.81</ele>
        <time>2018-03-14T16:02:50Z</time>
      </trkpt>
      <trkpt lat="42.93289" lon="0.70096">
        <ele>689.88</ele>
        <time>2018-03-14T16:03:03Z</time>
      </trkpt>
      <trkpt lat="42.93297" lon="0.70091">
        <ele>688.92</ele>
        <time>2018-03-14T16:03:16Z</time>
      </trkpt>
      <trkpt lat="42.93301" lon="0.70085">
        <ele>687.96</ele>
        <time>2018-03-14T16:03:34Z</time>
      </trkpt>
      <trkpt lat="42.93306" lon="0.70076">
        <ele>687.48</ele>
        <time>2018-03-14T16:03:48Z</time>
      </trkpt>
      <trkpt lat="42.93306" lon="0.70075">
        <ele>687.48</ele>
        <time>2018-03-14T16:03:49Z</time>
      </trkpt>
      <trkpt lat="42.93316" lon="0.70067">
        <ele>687</ele>
        <time>2018-03-14T16:04:02Z</time>
      </trkpt>
      <trkpt lat="42.93326" lon="0.70061">
        <ele>685.08</ele>
        <time>2018-03-14T16:04:14Z</time>
      </trkpt>
      <trkpt lat="42.93332" lon="0.70061">
        <ele>684.12</ele>
        <time>2018-03-14T16:04:26Z</time>
      </trkpt>
      <trkpt lat="42.93341" lon="0.70063">
        <ele>682.19</ele>
        <time>2018-03-14T16:04:40Z</time>
      </trkpt>
      <trkpt lat="42.93354" lon="0.70066">
        <ele>681.23</ele>
        <time>2018-03-14T16:04:50Z</time>
      </trkpt>
      <trkpt lat="42.93366" lon="0.70066">
        <ele>680.75</ele>
        <time>2018-03-14T16:05:02Z</time>
      </trkpt>
      <trkpt lat="42.93373" lon="0.70062">
        <ele>680.75</ele>
        <time>2018-03-14T16:05:12Z</time>
      </trkpt>
      <trkpt lat="42.93376" lon="0.70059">
        <ele>680.75</ele>
        <time>2018-03-14T16:05:26Z</time>
      </trkpt>
      <trkpt lat="42.93372" lon="0.70047">
        <ele>680.75</ele>
        <time>2018-03-14T16:05:37Z</time>
      </trkpt>
      <trkpt lat="42.93372" lon="0.70044">
        <ele>682.19</ele>
        <time>2018-03-14T16:05:39Z</time>
      </trkpt>
      <trkpt lat="42.93366" lon="0.7002">
        <ele>684.6</ele>
        <time>2018-03-14T16:05:54Z</time>
      </trkpt>
      <trkpt lat="42.93362" lon="0.70011">
        <ele>685.56</ele>
        <time>2018-03-14T16:06:02Z</time>
      </trkpt>
      <trkpt lat="42.93359" lon="0.7">
        <ele>686.52</ele>
        <time>2018-03-14T16:06:11Z</time>
      </trkpt>
      <trkpt lat="42.93358" lon="0.69979">
        <ele>687.48</ele>
        <time>2018-03-14T16:06:25Z</time>
      </trkpt>
      <trkpt lat="42.93362" lon="0.69964">
        <ele>687.96</ele>
        <time>2018-03-14T16:06:36Z</time>
      </trkpt>
      <trkpt lat="42.93361" lon="0.69948">
        <ele>688.92</ele>
        <time>2018-03-14T16:06:48Z</time>
      </trkpt>
      <trkpt lat="42.93362" lon="0.69945">
        <ele>688.92</ele>
        <time>2018-03-14T16:07:02Z</time>
      </trkpt>
      <trkpt lat="42.93362" lon="0.69929">
        <ele>690.36</ele>
        <time>2018-03-14T16:07:15Z</time>
      </trkpt>
      <trkpt lat="42.9336" lon="0.69914">
        <ele>692.29</ele>
        <time>2018-03-14T16:07:30Z</time>
      </trkpt>
      <trkpt lat="42.93358" lon="0.69899">
        <ele>693.73</ele>
        <time>2018-03-14T16:07:43Z</time>
      </trkpt>
      <trkpt lat="42.93358" lon="0.69896">
        <ele>694.21</ele>
        <time>2018-03-14T16:07:45Z</time>
      </trkpt>
      <trkpt lat="42.93358" lon="0.69881">
        <ele>696.13</ele>
        <time>2018-03-14T16:07:59Z</time>
      </trkpt>
      <trkpt lat="42.93358" lon="0.69867">
        <ele>698.53</ele>
        <time>2018-03-14T16:08:13Z</time>
      </trkpt>
      <trkpt lat="42.93358" lon="0.69853">
        <ele>700.46</ele>
        <time>2018-03-14T16:08:27Z</time>
      </trkpt>
      <trkpt lat="42.93357" lon="0.69843">
        <ele>702.38</ele>
        <time>2018-03-14T16:08:38Z</time>
      </trkpt>
      <trkpt lat="42.93352" lon="0.69829">
        <ele>704.3</ele>
        <time>2018-03-14T16:08:54Z</time>
      </trkpt>
      <trkpt lat="42.93348" lon="0.69817">
        <ele>706.23</ele>
        <time>2018-03-14T16:09:07Z</time>
      </trkpt>
      <trkpt lat="42.93341" lon="0.69805">
        <ele>708.15</ele>
        <time>2018-03-14T16:09:23Z</time>
      </trkpt>
      <trkpt lat="42.93334" lon="0.69791">
        <ele>708.63</ele>
        <time>2018-03-14T16:09:38Z</time>
      </trkpt>
      <trkpt lat="42.93324" lon="0.6978">
        <ele>709.11</ele>
        <time>2018-03-14T16:09:52Z</time>
      </trkpt>
      <trkpt lat="42.93315" lon="0.69777">
        <ele>709.59</ele>
        <time>2018-03-14T16:10:02Z</time>
      </trkpt>
      <trkpt lat="42.93301" lon="0.69772">
        <ele>710.55</ele>
        <time>2018-03-14T16:10:19Z</time>
      </trkpt>
      <trkpt lat="42.93288" lon="0.69769">
        <ele>711.03</ele>
        <time>2018-03-14T16:10:33Z</time>
      </trkpt>
      <trkpt lat="42.93281" lon="0.69759">
        <ele>711.99</ele>
        <time>2018-03-14T16:10:43Z</time>
      </trkpt>
      <trkpt lat="42.93274" lon="0.69743">
        <ele>713.44</ele>
        <time>2018-03-14T16:10:58Z</time>
      </trkpt>
      <trkpt lat="42.9327" lon="0.69728">
        <ele>715.36</ele>
        <time>2018-03-14T16:11:15Z</time>
      </trkpt>
      <trkpt lat="42.93269" lon="0.69716">
        <ele>716.8</ele>
        <time>2018-03-14T16:11:28Z</time>
      </trkpt>
      <trkpt lat="42.9327" lon="0.69704">
        <ele>718.24</ele>
        <time>2018-03-14T16:11:43Z</time>
      </trkpt>
      <trkpt lat="42.9327" lon="0.69697">
        <ele>719.68</ele>
        <time>2018-03-14T16:11:58Z</time>
      </trkpt>
      <trkpt lat="42.93271" lon="0.69696">
        <ele>720.65</ele>
        <time>2018-03-14T16:12:15Z</time>
      </trkpt>
      <trkpt lat="42.93274" lon="0.69686">
        <ele>721.13</ele>
        <time>2018-03-14T16:12:31Z</time>
      </trkpt>
      <trkpt lat="42.93275" lon="0.69675">
        <ele>721.61</ele>
        <time>2018-03-14T16:12:45Z</time>
      </trkpt>
      <trkpt lat="42.93278" lon="0.69659">
        <ele>721.13</ele>
        <time>2018-03-14T16:13:00Z</time>
      </trkpt>
      <trkpt lat="42.93278" lon="0.69657">
        <ele>721.13</ele>
        <time>2018-03-14T16:13:02Z</time>
      </trkpt>
      <trkpt lat="42.93279" lon="0.69653">
        <ele>720.16</ele>
        <time>2018-03-14T16:13:05Z</time>
      </trkpt>
      <trkpt lat="42.93282" lon="0.69647">
        <ele>721.13</ele>
        <time>2018-03-14T16:13:10Z</time>
      </trkpt>
      <trkpt lat="42.93278" lon="0.69627">
        <ele>719.68</ele>
        <time>2018-03-14T16:13:26Z</time>
      </trkpt>
      <trkpt lat="42.93274" lon="0.6962">
        <ele>718.24</ele>
        <time>2018-03-14T16:13:34Z</time>
      </trkpt>
      <trkpt lat="42.93277" lon="0.69602">
        <ele>715.84</ele>
        <time>2018-03-14T16:13:47Z</time>
      </trkpt>
      <trkpt lat="42.93277" lon="0.69582">
        <ele>713.44</ele>
        <time>2018-03-14T16:14:00Z</time>
      </trkpt>
      <trkpt lat="42.93277" lon="0.69557">
        <ele>712.47</ele>
        <time>2018-03-14T16:14:14Z</time>
      </trkpt>
      <trkpt lat="42.93278" lon="0.69543">
        <ele>711.03</ele>
        <time>2018-03-14T16:14:24Z</time>
      </trkpt>
      <trkpt lat="42.93274" lon="0.69516">
        <ele>708.15</ele>
        <time>2018-03-14T16:14:40Z</time>
      </trkpt>
      <trkpt lat="42.93272" lon="0.69508">
        <ele>707.19</ele>
        <time>2018-03-14T16:14:47Z</time>
      </trkpt>
      <trkpt lat="42.93268" lon="0.69502">
        <ele>706.23</ele>
        <time>2018-03-14T16:14:53Z</time>
      </trkpt>
      <trkpt lat="42.93258" lon="0.69491">
        <ele>705.26</ele>
        <time>2018-03-14T16:15:05Z</time>
      </trkpt>
      <trkpt lat="42.93249" lon="0.69481">
        <ele>703.34</ele>
        <time>2018-03-14T16:15:17Z</time>
      </trkpt>
      <trkpt lat="42.93248" lon="0.6948">
        <ele>703.34</ele>
        <time>2018-03-14T16:15:18Z</time>
      </trkpt>
      <trkpt lat="42.93241" lon="0.69458">
        <ele>701.42</ele>
        <time>2018-03-14T16:15:35Z</time>
      </trkpt>
      <trkpt lat="42.93241" lon="0.69454">
        <ele>700.94</ele>
        <time>2018-03-14T16:15:38Z</time>
      </trkpt>
      <trkpt lat="42.93241" lon="0.69438">
        <ele>699.5</ele>
        <time>2018-03-14T16:15:49Z</time>
      </trkpt>
      <trkpt lat="42.9324" lon="0.69434">
        <ele>699.02</ele>
        <time>2018-03-14T16:16:05Z</time>
      </trkpt>
      <trkpt lat="42.93242" lon="0.69421">
        <ele>698.53</ele>
        <time>2018-03-14T16:16:26Z</time>
      </trkpt>
      <trkpt lat="42.9324" lon="0.69395">
        <ele>695.65</ele>
        <time>2018-03-14T16:16:43Z</time>
      </trkpt>
      <trkpt lat="42.93237" lon="0.69369">
        <ele>693.25</ele>
        <time>2018-03-14T16:17:01Z</time>
      </trkpt>
      <trkpt lat="42.93234" lon="0.69348">
        <ele>692.29</ele>
        <time>2018-03-14T16:17:15Z</time>
      </trkpt>
      <trkpt lat="42.93231" lon="0.69328">
        <ele>689.4</ele>
        <time>2018-03-14T16:17:31Z</time>
      </trkpt>
      <trkpt lat="42.9323" lon="0.69315">
        <ele>688.92</ele>
        <time>2018-03-14T16:17:42Z</time>
      </trkpt>
      <trkpt lat="42.93229" lon="0.69309">
        <ele>688.92</ele>
        <time>2018-03-14T16:17:46Z</time>
      </trkpt>
      <trkpt lat="42.93228" lon="0.693">
        <ele>688.44</ele>
        <time>2018-03-14T16:17:52Z</time>
      </trkpt>
      <trkpt lat="42.93221" lon="0.69275">
        <ele>686.04</ele>
        <time>2018-03-14T16:18:09Z</time>
      </trkpt>
      <trkpt lat="42.93215" lon="0.69255">
        <ele>682.19</ele>
        <time>2018-03-14T16:18:24Z</time>
      </trkpt>
      <trkpt lat="42.93215" lon="0.69232">
        <ele>678.83</ele>
        <time>2018-03-14T16:18:38Z</time>
      </trkpt>
      <trkpt lat="42.93214" lon="0.69204">
        <ele>679.79</ele>
        <time>2018-03-14T16:18:53Z</time>
      </trkpt>
      <trkpt lat="42.93211" lon="0.69181">
        <ele>678.35</ele>
        <time>2018-03-14T16:19:08Z</time>
      </trkpt>
      <trkpt lat="42.93212" lon="0.69169">
        <ele>679.79</ele>
        <time>2018-03-14T16:19:16Z</time>
      </trkpt>
      <trkpt lat="42.9322" lon="0.69146">
        <ele>679.79</ele>
        <time>2018-03-14T16:19:32Z</time>
      </trkpt>
      <trkpt lat="42.93229" lon="0.69124">
        <ele>679.79</ele>
        <time>2018-03-14T16:19:47Z</time>
      </trkpt>
      <trkpt lat="42.9323" lon="0.69119">
        <ele>679.79</ele>
        <time>2018-03-14T16:19:50Z</time>
      </trkpt>
      <trkpt lat="42.93232" lon="0.69113">
        <ele>679.79</ele>
        <time>2018-03-14T16:19:54Z</time>
      </trkpt>
      <trkpt lat="42.93238" lon="0.69094">
        <ele>678.35</ele>
        <time>2018-03-14T16:20:07Z</time>
      </trkpt>
      <trkpt lat="42.93239" lon="0.69093">
        <ele>678.35</ele>
        <time>2018-03-14T16:20:08Z</time>
      </trkpt>
      <trkpt lat="42.93246" lon="0.69083">
        <ele>677.39</ele>
        <time>2018-03-14T16:20:17Z</time>
      </trkpt>
      <trkpt lat="42.93261" lon="0.69068">
        <ele>676.42</ele>
        <time>2018-03-14T16:20:34Z</time>
      </trkpt>
      <trkpt lat="42.93278" lon="0.69054">
        <ele>675.46</ele>
        <time>2018-03-14T16:20:50Z</time>
      </trkpt>
      <trkpt lat="42.93286" lon="0.69037">
        <ele>674.5</ele>
        <time>2018-03-14T16:21:07Z</time>
      </trkpt>
      <trkpt lat="42.93286" lon="0.69034">
        <ele>674.5</ele>
        <time>2018-03-14T16:21:09Z</time>
      </trkpt>
      <trkpt lat="42.93286" lon="0.69029">
        <ele>674.5</ele>
        <time>2018-03-14T16:21:13Z</time>
      </trkpt>
      <trkpt lat="42.93277" lon="0.69009">
        <ele>674.5</ele>
        <time>2018-03-14T16:21:29Z</time>
      </trkpt>
      <trkpt lat="42.93264" lon="0.68993">
        <ele>677.39</ele>
        <time>2018-03-14T16:21:46Z</time>
      </trkpt>
      <trkpt lat="42.9326" lon="0.68988">
        <ele>677.87</ele>
        <time>2018-03-14T16:21:57Z</time>
      </trkpt>
      <trkpt lat="42.93256" lon="0.68985">
        <ele>678.83</ele>
        <time>2018-03-14T16:22:08Z</time>
      </trkpt>
      <trkpt lat="42.93257" lon="0.68985">
        <ele>678.83</ele>
        <time>2018-03-14T16:22:25Z</time>
      </trkpt>
      <trkpt lat="42.93258" lon="0.68989">
        <ele>678.83</ele>
        <time>2018-03-14T16:22:38Z</time>
      </trkpt>
    </trkseg>
  </trk>
</gpx>